<?xml version='1.0' encoding='UTF-8'?><gpx version="1.1" creator="JPX - https://github.com/jenetics/jpx" xmlns="http://www.topografix.com/GPX/1/1"><trk><trkseg><trkpt lat="40.9856824" lon="16.9640777"><ele>170.0</ele><time>2026-04-28T15:11:02.966Z</time></trkpt><trkpt lat="40.9857525" lon="16.9641049"><ele>170.0</ele><time>2026-04-28T15:11:04.966Z</time></trkpt><trkpt lat="40.985844" lon="16.9641093"><ele>170.0</ele><time>2026-04-28T15:11:06.965Z</time></trkpt><trkpt lat="40.9859555" lon="16.9641103"><ele>170.0</ele><time>2026-04-28T15:11:08.964Z</time></trkpt><trkpt lat="40.986074" lon="16.9641131"><ele>170.0</ele><time>2026-04-28T15:11:10.965Z</time></trkpt><trkpt lat="40.986195" lon="16.964112"><ele>169.66666666666666</ele><time>2026-04-28T15:11:12.965Z</time></trkpt><trkpt lat="40.9863212" lon="16.9641074"><ele>169.33333333333331</ele><time>2026-04-28T15:11:14.965Z</time></trkpt><trkpt lat="40.9864462" lon="16.9641137"><ele>169.0</ele><time>2026-04-28T15:11:16.966Z</time></trkpt><trkpt lat="40.9865093" lon="16.9641117"><ele>168.66666666666666</ele><time>2026-04-28T15:11:17.966Z</time></trkpt><trkpt lat="40.9865739" lon="16.9641096"><ele>168.33333333333334</ele><time>2026-04-28T15:11:18.965Z</time></trkpt><trkpt lat="40.9866386" lon="16.9641113"><ele>168.0</ele><time>2026-04-28T15:11:19.965Z</time></trkpt><trkpt lat="40.9867059" lon="16.9641137"><ele>167.57142857142858</ele><time>2026-04-28T15:11:20.965Z</time></trkpt><trkpt lat="40.9867732" lon="16.9641199"><ele>167.14285714285714</ele><time>2026-04-28T15:11:21.965Z</time></trkpt><trkpt lat="40.9868402" lon="16.9641234"><ele>166.71428571428572</ele><time>2026-04-28T15:11:22.965Z</time></trkpt><trkpt lat="40.9869055" lon="16.9641329"><ele>166.28571428571428</ele><time>2026-04-28T15:11:23.965Z</time></trkpt><trkpt lat="40.9869728" lon="16.9641379"><ele>165.85714285714286</ele><time>2026-04-28T15:11:24.965Z</time></trkpt><trkpt lat="40.9870421" lon="16.9641376"><ele>165.42857142857144</ele><time>2026-04-28T15:11:25.966Z</time></trkpt><trkpt lat="40.9871131" lon="16.9641377"><ele>165.0</ele><time>2026-04-28T15:11:26.965Z</time></trkpt><trkpt lat="40.987185" lon="16.9641368"><ele>165.00000000000003</ele><time>2026-04-28T15:11:27.966Z</time></trkpt><trkpt lat="40.9872558" lon="16.9641361"><ele>165.0</ele><time>2026-04-28T15:11:28.965Z</time></trkpt><trkpt lat="40.9873259" lon="16.9641343"><ele>165.0</ele><time>2026-04-28T15:11:29.965Z</time></trkpt><trkpt lat="40.9873959" lon="16.9641374"><ele>165.0</ele><time>2026-04-28T15:11:30.965Z</time></trkpt><trkpt lat="40.9874637" lon="16.9641354"><ele>165.0</ele><time>2026-04-28T15:11:31.965Z</time></trkpt><trkpt lat="40.9875317" lon="16.9641346"><ele>165.00000000000003</ele><time>2026-04-28T15:11:32.965Z</time></trkpt><trkpt lat="40.9875987" lon="16.9641354"><ele>165.0</ele><time>2026-04-28T15:11:33.965Z</time></trkpt><trkpt lat="40.9876676" lon="16.9641345"><ele>164.6</ele><time>2026-04-28T15:11:34.966Z</time></trkpt><trkpt lat="40.9877334" lon="16.9641347"><ele>164.2</ele><time>2026-04-28T15:11:35.966Z</time></trkpt><trkpt lat="40.9878306" lon="16.9641046"><ele>163.8</ele><time>2026-04-28T15:11:37.965Z</time></trkpt><trkpt lat="40.9878448" lon="16.9639989"><ele>163.4</ele><time>2026-04-28T15:11:39.966Z</time></trkpt><trkpt lat="40.98784" lon="16.963862"><ele>163.0</ele><time>2026-04-28T15:11:41.965Z</time></trkpt><trkpt lat="40.9878472" lon="16.9637026"><ele>163.0</ele><time>2026-04-28T15:11:43.965Z</time></trkpt><trkpt lat="40.9878465" lon="16.963618"><ele>163.0</ele><time>2026-04-28T15:11:44.965Z</time></trkpt><trkpt lat="40.9878466" lon="16.9635345"><ele>163.0</ele><time>2026-04-28T15:11:45.965Z</time></trkpt><trkpt lat="40.9878474" lon="16.963449"><ele>163.0</ele><time>2026-04-28T15:11:46.966Z</time></trkpt><trkpt lat="40.9878486" lon="16.9633647"><ele>163.0</ele><time>2026-04-28T15:11:47.965Z</time></trkpt><trkpt lat="40.9878499" lon="16.9632804"><ele>163.0</ele><time>2026-04-28T15:11:48.966Z</time></trkpt><trkpt lat="40.9878505" lon="16.9631951"><ele>163.0</ele><time>2026-04-28T15:11:49.965Z</time></trkpt><trkpt lat="40.987851" lon="16.9631102"><ele>163.0</ele><time>2026-04-28T15:11:50.966Z</time></trkpt><trkpt lat="40.987852" lon="16.9630249"><ele>163.2</ele><time>2026-04-28T15:11:51.965Z</time></trkpt><trkpt lat="40.9878538" lon="16.9629404"><ele>163.4</ele><time>2026-04-28T15:11:52.965Z</time></trkpt><trkpt lat="40.987856" lon="16.9628568"><ele>163.6</ele><time>2026-04-28T15:11:53.965Z</time></trkpt><trkpt lat="40.9878622" lon="16.9626919"><ele>163.79999999999998</ele><time>2026-04-28T15:11:55.965Z</time></trkpt><trkpt lat="40.9878657" lon="16.9625293"><ele>164.0</ele><time>2026-04-28T15:11:57.966Z</time></trkpt><trkpt lat="40.9878648" lon="16.962363"><ele>164.14285714285714</ele><time>2026-04-28T15:11:59.965Z</time></trkpt><trkpt lat="40.9878655" lon="16.9622777"><ele>164.28571428571428</ele><time>2026-04-28T15:12:00.965Z</time></trkpt><trkpt lat="40.987865" lon="16.9621924"><ele>164.42857142857144</ele><time>2026-04-28T15:12:01.965Z</time></trkpt><trkpt lat="40.9878646" lon="16.9621085"><ele>164.57142857142856</ele><time>2026-04-28T15:12:02.966Z</time></trkpt><trkpt lat="40.9878638" lon="16.9620246"><ele>164.71428571428572</ele><time>2026-04-28T15:12:03.966Z</time></trkpt><trkpt lat="40.9878637" lon="16.9619411"><ele>164.85714285714286</ele><time>2026-04-28T15:12:04.965Z</time></trkpt><trkpt lat="40.9878656" lon="16.9617761"><ele>165.0</ele><time>2026-04-28T15:12:06.966Z</time></trkpt><trkpt lat="40.9878672" lon="16.9616126"><ele>165.2857142857143</ele><time>2026-04-28T15:12:08.966Z</time></trkpt><trkpt lat="40.9878804" lon="16.9614472"><ele>165.57142857142858</ele><time>2026-04-28T15:12:10.965Z</time></trkpt><trkpt lat="40.9878997" lon="16.9613671"><ele>165.85714285714286</ele><time>2026-04-28T15:12:11.966Z</time></trkpt><trkpt lat="40.9879121" lon="16.9612844"><ele>166.14285714285717</ele><time>2026-04-28T15:12:12.965Z</time></trkpt><trkpt lat="40.9879141" lon="16.9612005"><ele>166.42857142857144</ele><time>2026-04-28T15:12:13.965Z</time></trkpt><trkpt lat="40.9879123" lon="16.9611167"><ele>166.71428571428572</ele><time>2026-04-28T15:12:14.965Z</time></trkpt><trkpt lat="40.9879135" lon="16.9610308"><ele>167.0</ele><time>2026-04-28T15:12:15.965Z</time></trkpt><trkpt lat="40.9879047" lon="16.9609441"><ele>166.8</ele><time>2026-04-28T15:12:16.965Z</time></trkpt><trkpt lat="40.9878981" lon="16.9608586"><ele>166.6</ele><time>2026-04-28T15:12:17.965Z</time></trkpt><trkpt lat="40.9878903" lon="16.960774"><ele>166.4</ele><time>2026-04-28T15:12:18.965Z</time></trkpt><trkpt lat="40.9879393" lon="16.9606367"><ele>166.20000000000002</ele><time>2026-04-28T15:12:20.966Z</time></trkpt><trkpt lat="40.9880461" lon="16.9605908"><ele>166.0</ele><time>2026-04-28T15:12:22.965Z</time></trkpt><trkpt lat="40.988171" lon="16.960556"><ele>166.0</ele><time>2026-04-28T15:12:24.966Z</time></trkpt><trkpt lat="40.988237" lon="16.9605438"><ele>166.0</ele><time>2026-04-28T15:12:25.965Z</time></trkpt><trkpt lat="40.9883039" lon="16.9605275"><ele>166.0</ele><time>2026-04-28T15:12:26.965Z</time></trkpt><trkpt lat="40.9883702" lon="16.9605101"><ele>166.0</ele><time>2026-04-28T15:12:27.965Z</time></trkpt><trkpt lat="40.9884378" lon="16.9604946"><ele>166.0</ele><time>2026-04-28T15:12:28.965Z</time></trkpt><trkpt lat="40.9885014" lon="16.9604769"><ele>166.0</ele><time>2026-04-28T15:12:29.965Z</time></trkpt><trkpt lat="40.9885678" lon="16.96046"><ele>166.0</ele><time>2026-04-28T15:12:30.965Z</time></trkpt><trkpt lat="40.9886331" lon="16.960454"><ele>166.14285714285714</ele><time>2026-04-28T15:12:31.965Z</time></trkpt><trkpt lat="40.9886965" lon="16.9604517"><ele>166.2857142857143</ele><time>2026-04-28T15:12:32.965Z</time></trkpt><trkpt lat="40.9887603" lon="16.960447"><ele>166.42857142857144</ele><time>2026-04-28T15:12:33.965Z</time></trkpt><trkpt lat="40.9888239" lon="16.9604347"><ele>166.57142857142856</ele><time>2026-04-28T15:12:34.966Z</time></trkpt><trkpt lat="40.9888866" lon="16.9604171"><ele>166.71428571428572</ele><time>2026-04-28T15:12:35.966Z</time></trkpt><trkpt lat="40.9889487" lon="16.9603989"><ele>166.85714285714286</ele><time>2026-04-28T15:12:36.965Z</time></trkpt><trkpt lat="40.9890689" lon="16.960348"><ele>167.0</ele><time>2026-04-28T15:12:38.965Z</time></trkpt><trkpt lat="40.9891315" lon="16.9603299"><ele>166.83333333333331</ele><time>2026-04-28T15:12:39.965Z</time></trkpt><trkpt lat="40.9892558" lon="16.9603007"><ele>166.66666666666666</ele><time>2026-04-28T15:12:41.965Z</time></trkpt><trkpt lat="40.9893821" lon="16.9602775"><ele>166.5</ele><time>2026-04-28T15:12:43.965Z</time></trkpt><trkpt lat="40.9894465" lon="16.9602684"><ele>166.33333333333334</ele><time>2026-04-28T15:12:44.965Z</time></trkpt><trkpt lat="40.9895118" lon="16.9602602"><ele>166.16666666666669</ele><time>2026-04-28T15:12:45.965Z</time></trkpt><trkpt lat="40.9895767" lon="16.9602562"><ele>166.0</ele><time>2026-04-28T15:12:46.966Z</time></trkpt><trkpt lat="40.9896422" lon="16.9602495"><ele>166.0</ele><time>2026-04-28T15:12:47.965Z</time></trkpt><trkpt lat="40.9897079" lon="16.9602426"><ele>166.0</ele><time>2026-04-28T15:12:48.965Z</time></trkpt><trkpt lat="40.9897735" lon="16.9602299"><ele>166.0</ele><time>2026-04-28T15:12:49.965Z</time></trkpt><trkpt lat="40.9898396" lon="16.960223"><ele>166.0</ele><time>2026-04-28T15:12:50.966Z</time></trkpt><trkpt lat="40.989907" lon="16.9602188"><ele>166.0</ele><time>2026-04-28T15:12:51.966Z</time></trkpt><trkpt lat="40.989973" lon="16.9602123"><ele>166.0</ele><time>2026-04-28T15:12:52.965Z</time></trkpt><trkpt lat="40.9900394" lon="16.960211"><ele>166.0</ele><time>2026-04-28T15:12:53.965Z</time></trkpt><trkpt lat="40.9901056" lon="16.9602115"><ele>166.0</ele><time>2026-04-28T15:12:54.965Z</time></trkpt><trkpt lat="40.9901713" lon="16.9602039"><ele>166.0</ele><time>2026-04-28T15:12:55.965Z</time></trkpt><trkpt lat="40.9902378" lon="16.9601992"><ele>166.0</ele><time>2026-04-28T15:12:56.965Z</time></trkpt><trkpt lat="40.9903021" lon="16.9601932"><ele>166.0</ele><time>2026-04-28T15:12:57.965Z</time></trkpt><trkpt lat="40.9903656" lon="16.960183"><ele>166.0</ele><time>2026-04-28T15:12:58.965Z</time></trkpt><trkpt lat="40.9904586" lon="16.9601512"><ele>166.0</ele><time>2026-04-28T15:13:00.966Z</time></trkpt><trkpt lat="40.9905135" lon="16.9600953"><ele>166.0</ele><time>2026-04-28T15:13:03.965Z</time></trkpt><trkpt lat="40.9904915" lon="16.9599817"><ele>166.0</ele><time>2026-04-28T15:13:07.965Z</time></trkpt><trkpt lat="40.9904652" lon="16.9598767"><ele>166.0</ele><time>2026-04-28T15:13:09.965Z</time></trkpt><trkpt lat="40.9904482" lon="16.9597342"><ele>166.0</ele><time>2026-04-28T15:13:11.965Z</time></trkpt><trkpt lat="40.9904316" lon="16.9595847"><ele>166.0</ele><time>2026-04-28T15:13:13.965Z</time></trkpt><trkpt lat="40.9904104" lon="16.9594312"><ele>166.0</ele><time>2026-04-28T15:13:15.965Z</time></trkpt><trkpt lat="40.990392" lon="16.9592725"><ele>165.33333333333334</ele><time>2026-04-28T15:13:17.966Z</time></trkpt><trkpt lat="40.9903765" lon="16.9591117"><ele>164.66666666666669</ele><time>2026-04-28T15:13:19.965Z</time></trkpt><trkpt lat="40.9903548" lon="16.9589475"><ele>164.0</ele><time>2026-04-28T15:13:21.966Z</time></trkpt><trkpt lat="40.9903465" lon="16.9588618"><ele>163.33333333333334</ele><time>2026-04-28T15:13:22.965Z</time></trkpt><trkpt lat="40.9903349" lon="16.9587759"><ele>162.66666666666666</ele><time>2026-04-28T15:13:23.965Z</time></trkpt><trkpt lat="40.9903232" lon="16.9586911"><ele>162.0</ele><time>2026-04-28T15:13:24.965Z</time></trkpt><trkpt lat="40.9903107" lon="16.9586074"><ele>162.0</ele><time>2026-04-28T15:13:25.965Z</time></trkpt><trkpt lat="40.9902957" lon="16.9585228"><ele>162.0</ele><time>2026-04-28T15:13:26.965Z</time></trkpt><trkpt lat="40.990285" lon="16.9584381"><ele>162.0</ele><time>2026-04-28T15:13:27.965Z</time></trkpt><trkpt lat="40.9902707" lon="16.9583542"><ele>162.0</ele><time>2026-04-28T15:13:28.964Z</time></trkpt><trkpt lat="40.9902572" lon="16.9582701"><ele>162.0</ele><time>2026-04-28T15:13:29.965Z</time></trkpt><trkpt lat="40.9902461" lon="16.9581826"><ele>162.0</ele><time>2026-04-28T15:13:30.966Z</time></trkpt><trkpt lat="40.9902329" lon="16.9580964"><ele>162.0</ele><time>2026-04-28T15:13:31.966Z</time></trkpt><trkpt lat="40.9902198" lon="16.9580123"><ele>162.0</ele><time>2026-04-28T15:13:32.965Z</time></trkpt><trkpt lat="40.9902044" lon="16.9579261"><ele>162.0</ele><time>2026-04-28T15:13:33.965Z</time></trkpt><trkpt lat="40.9901922" lon="16.9578407"><ele>162.0</ele><time>2026-04-28T15:13:34.964Z</time></trkpt><trkpt lat="40.9901914" lon="16.9577566"><ele>162.0</ele><time>2026-04-28T15:13:35.965Z</time></trkpt><trkpt lat="40.9902036" lon="16.9576706"><ele>162.0</ele><time>2026-04-28T15:13:36.966Z</time></trkpt><trkpt lat="40.9902206" lon="16.9575871"><ele>162.0</ele><time>2026-04-28T15:13:37.965Z</time></trkpt><trkpt lat="40.990242" lon="16.9575044"><ele>162.0</ele><time>2026-04-28T15:13:38.966Z</time></trkpt><trkpt lat="40.9902624" lon="16.957425"><ele>162.0</ele><time>2026-04-28T15:13:39.965Z</time></trkpt><trkpt lat="40.9902843" lon="16.9573423"><ele>162.0</ele><time>2026-04-28T15:13:40.965Z</time></trkpt><trkpt lat="40.9903029" lon="16.9572591"><ele>162.0</ele><time>2026-04-28T15:13:41.965Z</time></trkpt><trkpt lat="40.9903231" lon="16.9571796"><ele>162.0</ele><time>2026-04-28T15:13:42.965Z</time></trkpt><trkpt lat="40.9903452" lon="16.9571003"><ele>162.0</ele><time>2026-04-28T15:13:43.966Z</time></trkpt><trkpt lat="40.9903674" lon="16.9570195"><ele>162.0</ele><time>2026-04-28T15:13:44.966Z</time></trkpt><trkpt lat="40.9903827" lon="16.9569348"><ele>162.0</ele><time>2026-04-28T15:13:45.965Z</time></trkpt><trkpt lat="40.9904018" lon="16.9568508"><ele>162.0</ele><time>2026-04-28T15:13:46.965Z</time></trkpt><trkpt lat="40.9904245" lon="16.9567647"><ele>162.0</ele><time>2026-04-28T15:13:47.966Z</time></trkpt><trkpt lat="40.9904448" lon="16.9566818"><ele>162.0</ele><time>2026-04-28T15:13:48.967Z</time></trkpt><trkpt lat="40.9904672" lon="16.9566012"><ele>162.0</ele><time>2026-04-28T15:13:49.965Z</time></trkpt><trkpt lat="40.990489" lon="16.9565212"><ele>162.0</ele><time>2026-04-28T15:13:50.965Z</time></trkpt><trkpt lat="40.9905084" lon="16.9564412"><ele>162.0</ele><time>2026-04-28T15:13:51.965Z</time></trkpt><trkpt lat="40.9905266" lon="16.9563611"><ele>162.0</ele><time>2026-04-28T15:13:52.965Z</time></trkpt><trkpt lat="40.9905447" lon="16.9562782"><ele>162.0</ele><time>2026-04-28T15:13:53.965Z</time></trkpt><trkpt lat="40.9905652" lon="16.9561973"><ele>162.0</ele><time>2026-04-28T15:13:54.965Z</time></trkpt><trkpt lat="40.9905865" lon="16.9561153"><ele>162.0</ele><time>2026-04-28T15:13:55.965Z</time></trkpt><trkpt lat="40.9906087" lon="16.9560343"><ele>162.0</ele><time>2026-04-28T15:13:56.965Z</time></trkpt><trkpt lat="40.9906314" lon="16.9559547"><ele>162.0</ele><time>2026-04-28T15:13:57.966Z</time></trkpt><trkpt lat="40.9906595" lon="16.9558788"><ele>162.0</ele><time>2026-04-28T15:13:58.965Z</time></trkpt><trkpt lat="40.9906887" lon="16.9558038"><ele>162.0</ele><time>2026-04-28T15:13:59.965Z</time></trkpt><trkpt lat="40.9907206" lon="16.9557307"><ele>161.85714285714286</ele><time>2026-04-28T15:14:00.965Z</time></trkpt><trkpt lat="40.9907444" lon="16.9556514"><ele>161.71428571428572</ele><time>2026-04-28T15:14:01.966Z</time></trkpt><trkpt lat="40.9907571" lon="16.9555679"><ele>161.57142857142856</ele><time>2026-04-28T15:14:02.965Z</time></trkpt><trkpt lat="40.990762" lon="16.9554834"><ele>161.42857142857144</ele><time>2026-04-28T15:14:03.965Z</time></trkpt><trkpt lat="40.9907663" lon="16.9553994"><ele>161.28571428571428</ele><time>2026-04-28T15:14:04.965Z</time></trkpt><trkpt lat="40.9908076" lon="16.9552459"><ele>161.14285714285714</ele><time>2026-04-28T15:14:06.965Z</time></trkpt><trkpt lat="40.9908306" lon="16.9551673"><ele>161.0</ele><time>2026-04-28T15:14:07.965Z</time></trkpt><trkpt lat="40.9908551" lon="16.9550901"><ele>160.83333333333331</ele><time>2026-04-28T15:14:08.966Z</time></trkpt><trkpt lat="40.9908865" lon="16.9549278"><ele>160.66666666666666</ele><time>2026-04-28T15:14:10.966Z</time></trkpt><trkpt lat="40.9909072" lon="16.9548482"><ele>160.5</ele><time>2026-04-28T15:14:11.966Z</time></trkpt><trkpt lat="40.99093" lon="16.9547691"><ele>160.33333333333334</ele><time>2026-04-28T15:14:12.965Z</time></trkpt><trkpt lat="40.9909518" lon="16.9546906"><ele>160.16666666666669</ele><time>2026-04-28T15:14:13.965Z</time></trkpt><trkpt lat="40.9909696" lon="16.95461"><ele>160.0</ele><time>2026-04-28T15:14:14.965Z</time></trkpt><trkpt lat="40.9910099" lon="16.9544579"><ele>160.0</ele><time>2026-04-28T15:14:16.965Z</time></trkpt><trkpt lat="40.9910078" lon="16.9543289"><ele>160.0</ele><time>2026-04-28T15:14:18.965Z</time></trkpt><trkpt lat="40.9909395" lon="16.9542909"><ele>160.0</ele><time>2026-04-28T15:14:20.965Z</time></trkpt><trkpt lat="40.9908479" lon="16.9542671"><ele>160.0</ele><time>2026-04-28T15:14:22.965Z</time></trkpt><trkpt lat="40.9907546" lon="16.9542556"><ele>160.0</ele><time>2026-04-28T15:14:24.966Z</time></trkpt><trkpt lat="40.9906961" lon="16.9542048"><ele>160.0</ele><time>2026-04-28T15:14:26.965Z</time></trkpt><trkpt lat="40.9906842" lon="16.9541113"><ele>160.2</ele><time>2026-04-28T15:14:28.965Z</time></trkpt><trkpt lat="40.9906977" lon="16.9539959"><ele>160.4</ele><time>2026-04-28T15:14:30.965Z</time></trkpt><trkpt lat="40.9907379" lon="16.9538678"><ele>160.60000000000002</ele><time>2026-04-28T15:14:32.965Z</time></trkpt><trkpt lat="40.990779" lon="16.9537279"><ele>160.8</ele><time>2026-04-28T15:14:34.965Z</time></trkpt><trkpt lat="40.9908208" lon="16.9535812"><ele>161.0</ele><time>2026-04-28T15:14:36.966Z</time></trkpt><trkpt lat="40.9908585" lon="16.9534262"><ele>160.71428571428572</ele><time>2026-04-28T15:14:38.965Z</time></trkpt><trkpt lat="40.9908958" lon="16.9532677"><ele>160.42857142857144</ele><time>2026-04-28T15:14:40.965Z</time></trkpt><trkpt lat="40.9909157" lon="16.9531872"><ele>160.14285714285714</ele><time>2026-04-28T15:14:41.964Z</time></trkpt><trkpt lat="40.9909363" lon="16.9531083"><ele>159.85714285714286</ele><time>2026-04-28T15:14:42.965Z</time></trkpt><trkpt lat="40.9909581" lon="16.9530287"><ele>159.57142857142858</ele><time>2026-04-28T15:14:43.964Z</time></trkpt><trkpt lat="40.9909784" lon="16.9529454"><ele>159.28571428571428</ele><time>2026-04-28T15:14:44.964Z</time></trkpt><trkpt lat="40.9910024" lon="16.9528645"><ele>159.0</ele><time>2026-04-28T15:14:45.964Z</time></trkpt><trkpt lat="40.9910261" lon="16.9527831"><ele>159.0</ele><time>2026-04-28T15:14:46.964Z</time></trkpt><trkpt lat="40.9910476" lon="16.9527009"><ele>159.0</ele><time>2026-04-28T15:14:47.964Z</time></trkpt><trkpt lat="40.9910683" lon="16.952618"><ele>159.0</ele><time>2026-04-28T15:14:48.964Z</time></trkpt><trkpt lat="40.9910877" lon="16.9525349"><ele>159.0</ele><time>2026-04-28T15:14:49.964Z</time></trkpt><trkpt lat="40.9911073" lon="16.9524506"><ele>159.0</ele><time>2026-04-28T15:14:50.964Z</time></trkpt><trkpt lat="40.9911277" lon="16.952366"><ele>159.0</ele><time>2026-04-28T15:14:51.964Z</time></trkpt><trkpt lat="40.9911511" lon="16.9522825"><ele>159.0</ele><time>2026-04-28T15:14:52.964Z</time></trkpt><trkpt lat="40.9911727" lon="16.9521986"><ele>158.7142857142857</ele><time>2026-04-28T15:14:53.964Z</time></trkpt><trkpt lat="40.9911933" lon="16.9521128"><ele>158.42857142857144</ele><time>2026-04-28T15:14:54.964Z</time></trkpt><trkpt lat="40.9912147" lon="16.9520283"><ele>158.14285714285714</ele><time>2026-04-28T15:14:55.964Z</time></trkpt><trkpt lat="40.9912366" lon="16.9519428"><ele>157.85714285714283</ele><time>2026-04-28T15:14:56.964Z</time></trkpt><trkpt lat="40.9912571" lon="16.9518587"><ele>157.57142857142856</ele><time>2026-04-28T15:14:57.965Z</time></trkpt><trkpt lat="40.9912769" lon="16.9517722"><ele>157.28571428571428</ele><time>2026-04-28T15:14:58.964Z</time></trkpt><trkpt lat="40.9912963" lon="16.9516871"><ele>157.0</ele><time>2026-04-28T15:14:59.964Z</time></trkpt><trkpt lat="40.9913194" lon="16.9516045"><ele>156.99999999999997</ele><time>2026-04-28T15:15:00.964Z</time></trkpt><trkpt lat="40.9913397" lon="16.9515212"><ele>157.0</ele><time>2026-04-28T15:15:01.965Z</time></trkpt><trkpt lat="40.9913675" lon="16.9514431"><ele>157.0</ele><time>2026-04-28T15:15:02.964Z</time></trkpt><trkpt lat="40.9913936" lon="16.9513623"><ele>157.0</ele><time>2026-04-28T15:15:03.964Z</time></trkpt><trkpt lat="40.9914072" lon="16.951276"><ele>157.0</ele><time>2026-04-28T15:15:04.964Z</time></trkpt><trkpt lat="40.9914176" lon="16.9511889"><ele>156.99999999999997</ele><time>2026-04-28T15:15:05.964Z</time></trkpt><trkpt lat="40.9914344" lon="16.9511037"><ele>157.0</ele><time>2026-04-28T15:15:06.964Z</time></trkpt><trkpt lat="40.9914584" lon="16.951021"><ele>156.99999999999997</ele><time>2026-04-28T15:15:07.963Z</time></trkpt><trkpt lat="40.9914857" lon="16.9509424"><ele>157.0</ele><time>2026-04-28T15:15:08.964Z</time></trkpt><trkpt lat="40.9915101" lon="16.9508624"><ele>157.0</ele><time>2026-04-28T15:15:09.964Z</time></trkpt><trkpt lat="40.991532" lon="16.950783"><ele>157.0</ele><time>2026-04-28T15:15:10.964Z</time></trkpt><trkpt lat="40.9915511" lon="16.9507022"><ele>157.0</ele><time>2026-04-28T15:15:11.964Z</time></trkpt><trkpt lat="40.9915913" lon="16.9505451"><ele>156.99999999999997</ele><time>2026-04-28T15:15:13.965Z</time></trkpt><trkpt lat="40.9916117" lon="16.950464"><ele>157.0</ele><time>2026-04-28T15:15:14.963Z</time></trkpt><trkpt lat="40.9916315" lon="16.9503817"><ele>157.14285714285714</ele><time>2026-04-28T15:15:15.964Z</time></trkpt><trkpt lat="40.9916539" lon="16.9503035"><ele>157.28571428571428</ele><time>2026-04-28T15:15:16.964Z</time></trkpt><trkpt lat="40.991673" lon="16.9502214"><ele>157.42857142857144</ele><time>2026-04-28T15:15:17.965Z</time></trkpt><trkpt lat="40.991693" lon="16.9501417"><ele>157.57142857142856</ele><time>2026-04-28T15:15:18.964Z</time></trkpt><trkpt lat="40.9917134" lon="16.9500599"><ele>157.71428571428572</ele><time>2026-04-28T15:15:19.964Z</time></trkpt><trkpt lat="40.9917347" lon="16.9499805"><ele>157.85714285714286</ele><time>2026-04-28T15:15:20.964Z</time></trkpt><trkpt lat="40.9917564" lon="16.9498996"><ele>158.0</ele><time>2026-04-28T15:15:21.964Z</time></trkpt><trkpt lat="40.9917789" lon="16.9498191"><ele>158.0</ele><time>2026-04-28T15:15:22.964Z</time></trkpt><trkpt lat="40.9917961" lon="16.9497365"><ele>158.0</ele><time>2026-04-28T15:15:23.964Z</time></trkpt><trkpt lat="40.9918155" lon="16.9496532"><ele>158.0</ele><time>2026-04-28T15:15:24.964Z</time></trkpt><trkpt lat="40.9918449" lon="16.9495764"><ele>158.0</ele><time>2026-04-28T15:15:25.964Z</time></trkpt><trkpt lat="40.991868" lon="16.9494981"><ele>158.0</ele><time>2026-04-28T15:15:26.964Z</time></trkpt><trkpt lat="40.9919038" lon="16.9493504"><ele>158.0</ele><time>2026-04-28T15:15:28.964Z</time></trkpt><trkpt lat="40.991933" lon="16.9492505"><ele>158.0</ele><time>2026-04-28T15:15:30.965Z</time></trkpt><trkpt lat="40.9919331" lon="16.9491524"><ele>158.0</ele><time>2026-04-28T15:15:33.964Z</time></trkpt><trkpt lat="40.9918776" lon="16.9490741"><ele>158.0</ele><time>2026-04-28T15:15:35.965Z</time></trkpt><trkpt lat="40.9917881" lon="16.9490009"><ele>158.0</ele><time>2026-04-28T15:15:37.964Z</time></trkpt><trkpt lat="40.9916914" lon="16.948928"><ele>158.0</ele><time>2026-04-28T15:15:39.964Z</time></trkpt><trkpt lat="40.991589" lon="16.9488442"><ele>158.25</ele><time>2026-04-28T15:15:41.965Z</time></trkpt><trkpt lat="40.9914848" lon="16.9487591"><ele>158.5</ele><time>2026-04-28T15:15:43.964Z</time></trkpt><trkpt lat="40.9913808" lon="16.948681"><ele>158.75</ele><time>2026-04-28T15:15:45.965Z</time></trkpt><trkpt lat="40.9912718" lon="16.9486024"><ele>159.0</ele><time>2026-04-28T15:15:47.966Z</time></trkpt><trkpt lat="40.9911611" lon="16.9485207"><ele>159.0</ele><time>2026-04-28T15:15:49.966Z</time></trkpt><trkpt lat="40.9911057" lon="16.9484777"><ele>159.0</ele><time>2026-04-28T15:15:50.964Z</time></trkpt><trkpt lat="40.9910503" lon="16.9484358"><ele>159.0</ele><time>2026-04-28T15:15:51.965Z</time></trkpt><trkpt lat="40.9909946" lon="16.948392"><ele>159.0</ele><time>2026-04-28T15:15:52.964Z</time></trkpt><trkpt lat="40.9909393" lon="16.9483496"><ele>159.0</ele><time>2026-04-28T15:15:53.964Z</time></trkpt><trkpt lat="40.990887" lon="16.9483022"><ele>159.0</ele><time>2026-04-28T15:15:54.964Z</time></trkpt><trkpt lat="40.9907945" lon="16.9481957"><ele>159.0</ele><time>2026-04-28T15:15:56.965Z</time></trkpt><trkpt lat="40.9907105" lon="16.9480797"><ele>159.0</ele><time>2026-04-28T15:15:58.965Z</time></trkpt><trkpt lat="40.9906257" lon="16.947959"><ele>159.0</ele><time>2026-04-28T15:16:00.964Z</time></trkpt><trkpt lat="40.9905402" lon="16.9478404"><ele>159.0</ele><time>2026-04-28T15:16:02.965Z</time></trkpt><trkpt lat="40.9904539" lon="16.9477199"><ele>159.0</ele><time>2026-04-28T15:16:04.964Z</time></trkpt><trkpt lat="40.9904098" lon="16.9476572"><ele>159.0</ele><time>2026-04-28T15:16:05.965Z</time></trkpt><trkpt lat="40.9903648" lon="16.9475975"><ele>159.16666666666666</ele><time>2026-04-28T15:16:06.964Z</time></trkpt><trkpt lat="40.990322" lon="16.9475329"><ele>159.33333333333334</ele><time>2026-04-28T15:16:07.964Z</time></trkpt><trkpt lat="40.9902792" lon="16.9474703"><ele>159.5</ele><time>2026-04-28T15:16:08.965Z</time></trkpt><trkpt lat="40.9902352" lon="16.9474088"><ele>159.66666666666669</ele><time>2026-04-28T15:16:09.964Z</time></trkpt><trkpt lat="40.9901484" lon="16.9472864"><ele>159.83333333333334</ele><time>2026-04-28T15:16:11.964Z</time></trkpt><trkpt lat="40.9900622" lon="16.9471696"><ele>160.0</ele><time>2026-04-28T15:16:13.965Z</time></trkpt><trkpt lat="40.9899726" lon="16.9470467"><ele>160.0</ele><time>2026-04-28T15:16:15.965Z</time></trkpt><trkpt lat="40.9898853" lon="16.9469265"><ele>160.0</ele><time>2026-04-28T15:16:17.964Z</time></trkpt><trkpt lat="40.9898423" lon="16.9468612"><ele>160.0</ele><time>2026-04-28T15:16:18.964Z</time></trkpt><trkpt lat="40.9898" lon="16.9467987"><ele>160.0</ele><time>2026-04-28T15:16:19.964Z</time></trkpt><trkpt lat="40.9897562" lon="16.9467341"><ele>160.0</ele><time>2026-04-28T15:16:20.964Z</time></trkpt><trkpt lat="40.9897145" lon="16.9466689"><ele>160.0</ele><time>2026-04-28T15:16:21.965Z</time></trkpt><trkpt lat="40.9896301" lon="16.9465453"><ele>160.25</ele><time>2026-04-28T15:16:23.964Z</time></trkpt><trkpt lat="40.9895435" lon="16.9464245"><ele>160.5</ele><time>2026-04-28T15:16:25.964Z</time></trkpt><trkpt lat="40.9894592" lon="16.9463044"><ele>160.75</ele><time>2026-04-28T15:16:27.964Z</time></trkpt><trkpt lat="40.9893749" lon="16.946195"><ele>161.0</ele><time>2026-04-28T15:16:29.964Z</time></trkpt><trkpt lat="40.9892952" lon="16.946082"><ele>161.0</ele><time>2026-04-28T15:16:31.965Z</time></trkpt><trkpt lat="40.9892166" lon="16.9459709"><ele>161.0</ele><time>2026-04-28T15:16:33.964Z</time></trkpt><trkpt lat="40.9891395" lon="16.9458621"><ele>161.0</ele><time>2026-04-28T15:16:35.965Z</time></trkpt><trkpt lat="40.9890753" lon="16.9457673"><ele>161.0</ele><time>2026-04-28T15:16:37.964Z</time></trkpt><trkpt lat="40.9890269" lon="16.9456952"><ele>161.0</ele><time>2026-04-28T15:16:39.964Z</time></trkpt><trkpt lat="40.9889656" lon="16.9456722"><ele>161.0</ele><time>2026-04-28T15:16:55.965Z</time></trkpt><trkpt lat="40.9890231" lon="16.9457968"><ele>161.0</ele><time>2026-04-28T15:16:58.964Z</time></trkpt><trkpt lat="40.9890942" lon="16.9458924"><ele>161.0</ele><time>2026-04-28T15:17:00.964Z</time></trkpt><trkpt lat="40.9891677" lon="16.9459947"><ele>161.0</ele><time>2026-04-28T15:17:02.964Z</time></trkpt><trkpt lat="40.989241" lon="16.9461059"><ele>161.0</ele><time>2026-04-28T15:17:04.964Z</time></trkpt><trkpt lat="40.9893155" lon="16.9462145"><ele>161.0</ele><time>2026-04-28T15:17:06.965Z</time></trkpt><trkpt lat="40.989367" lon="16.9462964"><ele>161.0</ele><time>2026-04-28T15:17:08.965Z</time></trkpt><trkpt lat="40.9894496" lon="16.9462947"><ele>161.0</ele><time>2026-04-28T15:17:22.964Z</time></trkpt><trkpt lat="40.9894804" lon="16.9462006"><ele>161.0</ele><time>2026-04-28T15:17:24.964Z</time></trkpt><trkpt lat="40.9895439" lon="16.9461154"><ele>161.0</ele><time>2026-04-28T15:17:26.964Z</time></trkpt><trkpt lat="40.989607" lon="16.9460009"><ele>161.0</ele><time>2026-04-28T15:17:28.964Z</time></trkpt><trkpt lat="40.9896804" lon="16.9458801"><ele>161.0</ele><time>2026-04-28T15:17:30.965Z</time></trkpt><trkpt lat="40.9897465" lon="16.9457491"><ele>161.0</ele><time>2026-04-28T15:17:32.965Z</time></trkpt><trkpt lat="40.9898098" lon="16.9456164"><ele>161.0</ele><time>2026-04-28T15:17:34.964Z</time></trkpt><trkpt lat="40.9898808" lon="16.945486"><ele>161.0</ele><time>2026-04-28T15:17:36.964Z</time></trkpt><trkpt lat="40.9899571" lon="16.9453522"><ele>161.0</ele><time>2026-04-28T15:17:38.964Z</time></trkpt><trkpt lat="40.9899968" lon="16.9452864"><ele>161.0</ele><time>2026-04-28T15:17:39.964Z</time></trkpt><trkpt lat="40.9900366" lon="16.9452196"><ele>161.0</ele><time>2026-04-28T15:17:40.964Z</time></trkpt><trkpt lat="40.9900743" lon="16.9451523"><ele>161.0</ele><time>2026-04-28T15:17:41.964Z</time></trkpt><trkpt lat="40.9901521" lon="16.9450206"><ele>161.0</ele><time>2026-04-28T15:17:43.964Z</time></trkpt><trkpt lat="40.9901913" lon="16.9449513"><ele>161.0</ele><time>2026-04-28T15:17:44.964Z</time></trkpt><trkpt lat="40.9902282" lon="16.9448829"><ele>161.0</ele><time>2026-04-28T15:17:45.965Z</time></trkpt><trkpt lat="40.9902632" lon="16.9448131"><ele>161.0</ele><time>2026-04-28T15:17:46.964Z</time></trkpt><trkpt lat="40.9903008" lon="16.9447453"><ele>161.0</ele><time>2026-04-28T15:17:47.964Z</time></trkpt><trkpt lat="40.9903383" lon="16.9446756"><ele>161.0</ele><time>2026-04-28T15:17:48.965Z</time></trkpt><trkpt lat="40.9903797" lon="16.9446092"><ele>161.0</ele><time>2026-04-28T15:17:49.964Z</time></trkpt><trkpt lat="40.9904192" lon="16.9445414"><ele>161.0</ele><time>2026-04-28T15:17:50.964Z</time></trkpt><trkpt lat="40.9904582" lon="16.944475"><ele>161.0</ele><time>2026-04-28T15:17:51.964Z</time></trkpt><trkpt lat="40.9904982" lon="16.9444087"><ele>161.0</ele><time>2026-04-28T15:17:52.964Z</time></trkpt><trkpt lat="40.9905376" lon="16.9443416"><ele>161.0</ele><time>2026-04-28T15:17:53.965Z</time></trkpt><trkpt lat="40.9905765" lon="16.9442733"><ele>161.0</ele><time>2026-04-28T15:17:54.964Z</time></trkpt><trkpt lat="40.9906171" lon="16.9442083"><ele>161.0</ele><time>2026-04-28T15:17:55.964Z</time></trkpt><trkpt lat="40.9906568" lon="16.944141"><ele>161.0</ele><time>2026-04-28T15:17:56.964Z</time></trkpt><trkpt lat="40.9906942" lon="16.9440708"><ele>161.0</ele><time>2026-04-28T15:17:57.965Z</time></trkpt><trkpt lat="40.9907343" lon="16.9440032"><ele>161.0</ele><time>2026-04-28T15:17:58.964Z</time></trkpt><trkpt lat="40.990776" lon="16.9439347"><ele>161.0</ele><time>2026-04-28T15:17:59.965Z</time></trkpt><trkpt lat="40.9908149" lon="16.9438648"><ele>161.0</ele><time>2026-04-28T15:18:00.964Z</time></trkpt><trkpt lat="40.9908564" lon="16.9437967"><ele>160.8</ele><time>2026-04-28T15:18:01.964Z</time></trkpt><trkpt lat="40.9908951" lon="16.9437285"><ele>160.60000000000002</ele><time>2026-04-28T15:18:02.965Z</time></trkpt><trkpt lat="40.9909723" lon="16.9435968"><ele>160.4</ele><time>2026-04-28T15:18:04.964Z</time></trkpt><trkpt lat="40.9910482" lon="16.9434695"><ele>160.2</ele><time>2026-04-28T15:18:06.964Z</time></trkpt><trkpt lat="40.991123" lon="16.9433471"><ele>160.0</ele><time>2026-04-28T15:18:08.964Z</time></trkpt><trkpt lat="40.9911971" lon="16.9432294"><ele>160.0</ele><time>2026-04-28T15:18:10.964Z</time></trkpt><trkpt lat="40.9912636" lon="16.9431145"><ele>160.0</ele><time>2026-04-28T15:18:12.964Z</time></trkpt><trkpt lat="40.9913266" lon="16.9430021"><ele>160.0</ele><time>2026-04-28T15:18:14.964Z</time></trkpt><trkpt lat="40.9913903" lon="16.9428993"><ele>160.0</ele><time>2026-04-28T15:18:16.964Z</time></trkpt><trkpt lat="40.991443" lon="16.94282"><ele>160.0</ele><time>2026-04-28T15:18:18.964Z</time></trkpt><trkpt lat="40.9915066" lon="16.9428317"><ele>160.0</ele><time>2026-04-28T15:18:21.964Z</time></trkpt><trkpt lat="40.99156" lon="16.942908"><ele>160.0</ele><time>2026-04-28T15:18:23.964Z</time></trkpt><trkpt lat="40.9916311" lon="16.9429775"><ele>160.0</ele><time>2026-04-28T15:18:25.964Z</time></trkpt><trkpt lat="40.9917086" lon="16.9430641"><ele>160.0</ele><time>2026-04-28T15:18:27.965Z</time></trkpt><trkpt lat="40.991793" lon="16.9431423"><ele>160.0</ele><time>2026-04-28T15:18:29.964Z</time></trkpt><trkpt lat="40.9918649" lon="16.9432145"><ele>160.0</ele><time>2026-04-28T15:18:31.964Z</time></trkpt><trkpt lat="40.9919271" lon="16.9432816"><ele>160.0</ele><time>2026-04-28T15:18:34.964Z</time></trkpt><trkpt lat="40.9918785" lon="16.9432254"><ele>160.0</ele><time>2026-04-28T15:18:49.965Z</time></trkpt><trkpt lat="40.9918221" lon="16.9431736"><ele>160.0</ele><time>2026-04-28T15:18:51.964Z</time></trkpt><trkpt lat="40.9917517" lon="16.9430952"><ele>160.0</ele><time>2026-04-28T15:18:53.964Z</time></trkpt><trkpt lat="40.9916756" lon="16.9430079"><ele>160.0</ele><time>2026-04-28T15:18:55.964Z</time></trkpt><trkpt lat="40.9915947" lon="16.9429279"><ele>160.0</ele><time>2026-04-28T15:18:57.964Z</time></trkpt><trkpt lat="40.9915194" lon="16.9428628"><ele>160.0</ele><time>2026-04-28T15:18:59.965Z</time></trkpt><trkpt lat="40.9914575" lon="16.9428038"><ele>160.0</ele><time>2026-04-28T15:19:01.965Z</time></trkpt><trkpt lat="40.9914025" lon="16.9427602"><ele>160.0</ele><time>2026-04-28T15:19:05.965Z</time></trkpt><trkpt lat="40.991341" lon="16.9426851"><ele>160.0</ele><time>2026-04-28T15:19:08.964Z</time></trkpt><trkpt lat="40.9913929" lon="16.9427337"><ele>160.0</ele><time>2026-04-28T15:19:27.964Z</time></trkpt><trkpt lat="40.9914394" lon="16.9428133"><ele>160.0</ele><time>2026-04-28T15:19:30.964Z</time></trkpt><trkpt lat="40.9913993" lon="16.9429047"><ele>160.0</ele><time>2026-04-28T15:19:33.964Z</time></trkpt><trkpt lat="40.9913452" lon="16.9429831"><ele>160.0</ele><time>2026-04-28T15:19:35.964Z</time></trkpt><trkpt lat="40.9912847" lon="16.9430665"><ele>160.0</ele><time>2026-04-28T15:19:37.964Z</time></trkpt><trkpt lat="40.9912261" lon="16.9431612"><ele>160.0</ele><time>2026-04-28T15:19:39.964Z</time></trkpt><trkpt lat="40.9911695" lon="16.9432634"><ele>160.0</ele><time>2026-04-28T15:19:41.965Z</time></trkpt><trkpt lat="40.9911083" lon="16.9433614"><ele>159.8</ele><time>2026-04-28T15:19:43.964Z</time></trkpt><trkpt lat="40.9910503" lon="16.94346"><ele>159.6</ele><time>2026-04-28T15:19:45.964Z</time></trkpt><trkpt lat="40.9909927" lon="16.9435532"><ele>159.4</ele><time>2026-04-28T15:19:47.965Z</time></trkpt><trkpt lat="40.9909347" lon="16.9436549"><ele>159.2</ele><time>2026-04-28T15:19:49.964Z</time></trkpt><trkpt lat="40.9908759" lon="16.9437538"><ele>159.0</ele><time>2026-04-28T15:19:51.964Z</time></trkpt><trkpt lat="40.9908178" lon="16.9438575"><ele>159.4</ele><time>2026-04-28T15:19:53.964Z</time></trkpt><trkpt lat="40.990756" lon="16.9439615"><ele>159.8</ele><time>2026-04-28T15:19:55.964Z</time></trkpt><trkpt lat="40.9906972" lon="16.9440652"><ele>160.20000000000002</ele><time>2026-04-28T15:19:57.964Z</time></trkpt><trkpt lat="40.990635" lon="16.9441694"><ele>160.60000000000002</ele><time>2026-04-28T15:19:59.965Z</time></trkpt><trkpt lat="40.9905755" lon="16.9442779"><ele>161.0</ele><time>2026-04-28T15:20:01.964Z</time></trkpt><trkpt lat="40.9905125" lon="16.9443856"><ele>161.0</ele><time>2026-04-28T15:20:03.964Z</time></trkpt><trkpt lat="40.9904473" lon="16.9444953"><ele>161.0</ele><time>2026-04-28T15:20:05.964Z</time></trkpt><trkpt lat="40.990381" lon="16.944607"><ele>161.0</ele><time>2026-04-28T15:20:07.965Z</time></trkpt><trkpt lat="40.9903147" lon="16.9447184"><ele>161.0</ele><time>2026-04-28T15:20:09.964Z</time></trkpt><trkpt lat="40.9902523" lon="16.9448302"><ele>161.0</ele><time>2026-04-28T15:20:11.964Z</time></trkpt><trkpt lat="40.99019" lon="16.9449349"><ele>161.0</ele><time>2026-04-28T15:20:13.965Z</time></trkpt><trkpt lat="40.9901257" lon="16.9450439"><ele>161.0</ele><time>2026-04-28T15:20:15.965Z</time></trkpt><trkpt lat="40.9900566" lon="16.9451562"><ele>161.0</ele><time>2026-04-28T15:20:17.965Z</time></trkpt><trkpt lat="40.9899902" lon="16.9452683"><ele>161.0</ele><time>2026-04-28T15:20:19.966Z</time></trkpt><trkpt lat="40.9899235" lon="16.9453817"><ele>161.0</ele><time>2026-04-28T15:20:21.964Z</time></trkpt><trkpt lat="40.9898613" lon="16.9454919"><ele>161.0</ele><time>2026-04-28T15:20:23.964Z</time></trkpt><trkpt lat="40.9898014" lon="16.9456056"><ele>161.0</ele><time>2026-04-28T15:20:25.964Z</time></trkpt><trkpt lat="40.9897411" lon="16.9457191"><ele>161.0</ele><time>2026-04-28T15:20:27.965Z</time></trkpt><trkpt lat="40.9896834" lon="16.9458435"><ele>161.0</ele><time>2026-04-28T15:20:29.964Z</time></trkpt><trkpt lat="40.989619" lon="16.9459635"><ele>161.0</ele><time>2026-04-28T15:20:31.964Z</time></trkpt><trkpt lat="40.9895501" lon="16.9460726"><ele>161.0</ele><time>2026-04-28T15:20:33.964Z</time></trkpt><trkpt lat="40.9894883" lon="16.946176"><ele>161.0</ele><time>2026-04-28T15:20:35.964Z</time></trkpt><trkpt lat="40.9894397" lon="16.9462502"><ele>161.0</ele><time>2026-04-28T15:20:37.964Z</time></trkpt><trkpt lat="40.9893663" lon="16.9462213"><ele>161.0</ele><time>2026-04-28T15:20:40.964Z</time></trkpt><trkpt lat="40.9893129" lon="16.9461376"><ele>161.0</ele><time>2026-04-28T15:20:42.964Z</time></trkpt><trkpt lat="40.9892561" lon="16.9460469"><ele>161.0</ele><time>2026-04-28T15:20:44.964Z</time></trkpt><trkpt lat="40.9891903" lon="16.9459549"><ele>161.20000000000002</ele><time>2026-04-28T15:20:46.964Z</time></trkpt><trkpt lat="40.9891232" lon="16.9458558"><ele>161.4</ele><time>2026-04-28T15:20:48.964Z</time></trkpt><trkpt lat="40.9890524" lon="16.9457521"><ele>161.6</ele><time>2026-04-28T15:20:50.964Z</time></trkpt><trkpt lat="40.9889814" lon="16.9456407"><ele>161.8</ele><time>2026-04-28T15:20:52.964Z</time></trkpt><trkpt lat="40.9889025" lon="16.945532"><ele>162.0</ele><time>2026-04-28T15:20:54.964Z</time></trkpt><trkpt lat="40.9888202" lon="16.9454233"><ele>162.0</ele><time>2026-04-28T15:20:56.964Z</time></trkpt><trkpt lat="40.9887347" lon="16.9453137"><ele>162.0</ele><time>2026-04-28T15:20:58.965Z</time></trkpt><trkpt lat="40.9886423" lon="16.9452176"><ele>162.0</ele><time>2026-04-28T15:21:00.965Z</time></trkpt><trkpt lat="40.9885448" lon="16.9451334"><ele>162.0</ele><time>2026-04-28T15:21:02.964Z</time></trkpt><trkpt lat="40.98844" lon="16.9450536"><ele>162.25</ele><time>2026-04-28T15:21:04.964Z</time></trkpt><trkpt lat="40.98833" lon="16.9449846"><ele>162.5</ele><time>2026-04-28T15:21:06.965Z</time></trkpt><trkpt lat="40.9882206" lon="16.9449234"><ele>162.75</ele><time>2026-04-28T15:21:08.964Z</time></trkpt><trkpt lat="40.9881107" lon="16.9448656"><ele>163.0</ele><time>2026-04-28T15:21:10.965Z</time></trkpt><trkpt lat="40.987998" lon="16.9448189"><ele>163.0</ele><time>2026-04-28T15:21:12.964Z</time></trkpt><trkpt lat="40.9878875" lon="16.9447793"><ele>163.0</ele><time>2026-04-28T15:21:14.964Z</time></trkpt><trkpt lat="40.9877727" lon="16.9447493"><ele>163.0</ele><time>2026-04-28T15:21:16.964Z</time></trkpt><trkpt lat="40.9876589" lon="16.9447176"><ele>163.0</ele><time>2026-04-28T15:21:18.964Z</time></trkpt><trkpt lat="40.9875834" lon="16.9446335"><ele>163.0</ele><time>2026-04-28T15:21:20.964Z</time></trkpt><trkpt lat="40.9875544" lon="16.9445001"><ele>163.0</ele><time>2026-04-28T15:21:22.964Z</time></trkpt><trkpt lat="40.9875524" lon="16.9443452"><ele>163.0</ele><time>2026-04-28T15:21:24.964Z</time></trkpt><trkpt lat="40.9875435" lon="16.9441816"><ele>163.0</ele><time>2026-04-28T15:21:26.964Z</time></trkpt><trkpt lat="40.9875295" lon="16.9440208"><ele>163.0</ele><time>2026-04-28T15:21:28.964Z</time></trkpt><trkpt lat="40.9875225" lon="16.9439376"><ele>163.0</ele><time>2026-04-28T15:21:29.964Z</time></trkpt><trkpt lat="40.9875024" lon="16.9437756"><ele>163.4</ele><time>2026-04-28T15:21:31.964Z</time></trkpt><trkpt lat="40.9874924" lon="16.94361"><ele>163.8</ele><time>2026-04-28T15:21:33.964Z</time></trkpt><trkpt lat="40.9874887" lon="16.9435263"><ele>164.2</ele><time>2026-04-28T15:21:34.965Z</time></trkpt><trkpt lat="40.9874761" lon="16.94336"><ele>164.6</ele><time>2026-04-28T15:21:36.965Z</time></trkpt><trkpt lat="40.987463" lon="16.9431964"><ele>165.0</ele><time>2026-04-28T15:21:38.964Z</time></trkpt><trkpt lat="40.9874598" lon="16.9430374"><ele>165.2</ele><time>2026-04-28T15:21:40.965Z</time></trkpt><trkpt lat="40.9875312" lon="16.9429392"><ele>165.4</ele><time>2026-04-28T15:21:42.965Z</time></trkpt><trkpt lat="40.9876276" lon="16.9429462"><ele>165.60000000000002</ele><time>2026-04-28T15:21:44.964Z</time></trkpt><trkpt lat="40.9877455" lon="16.9429647"><ele>165.8</ele><time>2026-04-28T15:21:46.964Z</time></trkpt><trkpt lat="40.9878096" lon="16.9429628"><ele>166.0</ele><time>2026-04-28T15:21:47.964Z</time></trkpt><trkpt lat="40.9879352" lon="16.9429556"><ele>166.0</ele><time>2026-04-28T15:21:49.964Z</time></trkpt><trkpt lat="40.9880632" lon="16.942944"><ele>166.0</ele><time>2026-04-28T15:21:51.964Z</time></trkpt><trkpt lat="40.9881262" lon="16.9429392"><ele>166.0</ele><time>2026-04-28T15:21:52.964Z</time></trkpt><trkpt lat="40.988252" lon="16.9429363"><ele>166.0</ele><time>2026-04-28T15:21:54.965Z</time></trkpt><trkpt lat="40.9883157" lon="16.9429316"><ele>166.0</ele><time>2026-04-28T15:21:55.964Z</time></trkpt><trkpt lat="40.9883796" lon="16.9429282"><ele>166.0</ele><time>2026-04-28T15:21:56.965Z</time></trkpt><trkpt lat="40.9884453" lon="16.9429273"><ele>165.7142857142857</ele><time>2026-04-28T15:21:57.965Z</time></trkpt><trkpt lat="40.9885084" lon="16.9429207"><ele>165.42857142857144</ele><time>2026-04-28T15:21:58.965Z</time></trkpt><trkpt lat="40.9885746" lon="16.9429162"><ele>165.14285714285714</ele><time>2026-04-28T15:21:59.964Z</time></trkpt><trkpt lat="40.9886388" lon="16.9429104"><ele>164.85714285714283</ele><time>2026-04-28T15:22:00.965Z</time></trkpt><trkpt lat="40.9887025" lon="16.9429013"><ele>164.57142857142856</ele><time>2026-04-28T15:22:01.964Z</time></trkpt><trkpt lat="40.9887673" lon="16.9428917"><ele>164.28571428571428</ele><time>2026-04-28T15:22:02.964Z</time></trkpt><trkpt lat="40.9888318" lon="16.9428822"><ele>164.0</ele><time>2026-04-28T15:22:03.965Z</time></trkpt><trkpt lat="40.9888966" lon="16.9428717"><ele>163.99999999999997</ele><time>2026-04-28T15:22:04.964Z</time></trkpt><trkpt lat="40.9889621" lon="16.9428653"><ele>164.0</ele><time>2026-04-28T15:22:05.964Z</time></trkpt><trkpt lat="40.9890274" lon="16.9428583"><ele>164.0</ele><time>2026-04-28T15:22:06.964Z</time></trkpt><trkpt lat="40.989092" lon="16.9428494"><ele>164.0</ele><time>2026-04-28T15:22:07.964Z</time></trkpt><trkpt lat="40.989157" lon="16.9428415"><ele>164.0</ele><time>2026-04-28T15:22:08.964Z</time></trkpt><trkpt lat="40.9892225" lon="16.9428278"><ele>163.99999999999997</ele><time>2026-04-28T15:22:09.963Z</time></trkpt><trkpt lat="40.9892882" lon="16.9428194"><ele>164.0</ele><time>2026-04-28T15:22:10.964Z</time></trkpt><trkpt lat="40.9893522" lon="16.9428067"><ele>163.7142857142857</ele><time>2026-04-28T15:22:11.965Z</time></trkpt><trkpt lat="40.989417" lon="16.9427945"><ele>163.42857142857142</ele><time>2026-04-28T15:22:12.964Z</time></trkpt><trkpt lat="40.9894816" lon="16.9427811"><ele>163.14285714285714</ele><time>2026-04-28T15:22:13.964Z</time></trkpt><trkpt lat="40.989545" lon="16.9427631"><ele>162.85714285714283</ele><time>2026-04-28T15:22:14.964Z</time></trkpt><trkpt lat="40.9896083" lon="16.9427406"><ele>162.57142857142856</ele><time>2026-04-28T15:22:15.964Z</time></trkpt><trkpt lat="40.9896704" lon="16.942716"><ele>162.28571428571428</ele><time>2026-04-28T15:22:16.964Z</time></trkpt><trkpt lat="40.9897329" lon="16.9426909"><ele>162.0</ele><time>2026-04-28T15:22:17.965Z</time></trkpt><trkpt lat="40.9897952" lon="16.9426664"><ele>162.0</ele><time>2026-04-28T15:22:18.965Z</time></trkpt><trkpt lat="40.9898574" lon="16.9426396"><ele>162.0</ele><time>2026-04-28T15:22:19.965Z</time></trkpt><trkpt lat="40.9899194" lon="16.9426143"><ele>162.0</ele><time>2026-04-28T15:22:20.965Z</time></trkpt><trkpt lat="40.9899823" lon="16.942593"><ele>162.0</ele><time>2026-04-28T15:22:21.964Z</time></trkpt><trkpt lat="40.9900453" lon="16.9425745"><ele>162.0</ele><time>2026-04-28T15:22:22.965Z</time></trkpt><trkpt lat="40.9901083" lon="16.9425626"><ele>162.0</ele><time>2026-04-28T15:22:23.964Z</time></trkpt><trkpt lat="40.9901713" lon="16.9425521"><ele>162.0</ele><time>2026-04-28T15:22:24.964Z</time></trkpt><trkpt lat="40.9902361" lon="16.9425425"><ele>162.0</ele><time>2026-04-28T15:22:25.966Z</time></trkpt><trkpt lat="40.990302" lon="16.9425351"><ele>162.0</ele><time>2026-04-28T15:22:26.965Z</time></trkpt><trkpt lat="40.9903672" lon="16.9425261"><ele>162.0</ele><time>2026-04-28T15:22:27.965Z</time></trkpt><trkpt lat="40.9904354" lon="16.9425156"><ele>162.0</ele><time>2026-04-28T15:22:28.964Z</time></trkpt><trkpt lat="40.9905022" lon="16.9425093"><ele>162.0</ele><time>2026-04-28T15:22:29.965Z</time></trkpt><trkpt lat="40.9905684" lon="16.9425055"><ele>162.0</ele><time>2026-04-28T15:22:30.964Z</time></trkpt><trkpt lat="40.9906346" lon="16.9425022"><ele>162.0</ele><time>2026-04-28T15:22:31.965Z</time></trkpt><trkpt lat="40.9906987" lon="16.9424993"><ele>162.0</ele><time>2026-04-28T15:22:32.964Z</time></trkpt><trkpt lat="40.9907644" lon="16.9424977"><ele>162.0</ele><time>2026-04-28T15:22:33.964Z</time></trkpt><trkpt lat="40.9908287" lon="16.9424948"><ele>162.0</ele><time>2026-04-28T15:22:34.965Z</time></trkpt><trkpt lat="40.9908933" lon="16.9424943"><ele>162.0</ele><time>2026-04-28T15:22:35.964Z</time></trkpt><trkpt lat="40.9909563" lon="16.9424958"><ele>162.0</ele><time>2026-04-28T15:22:36.964Z</time></trkpt><trkpt lat="40.9910223" lon="16.9424965"><ele>162.0</ele><time>2026-04-28T15:22:37.964Z</time></trkpt><trkpt lat="40.991089" lon="16.942492"><ele>162.0</ele><time>2026-04-28T15:22:38.965Z</time></trkpt><trkpt lat="40.9912074" lon="16.9424835"><ele>161.8</ele><time>2026-04-28T15:22:40.964Z</time></trkpt><trkpt lat="40.9913255" lon="16.9425186"><ele>161.6</ele><time>2026-04-28T15:22:42.964Z</time></trkpt><trkpt lat="40.991434" lon="16.9426044"><ele>161.4</ele><time>2026-04-28T15:22:44.964Z</time></trkpt><trkpt lat="40.9914847" lon="16.9426645"><ele>161.20000000000002</ele><time>2026-04-28T15:22:45.964Z</time></trkpt><trkpt lat="40.9915357" lon="16.942724"><ele>161.0</ele><time>2026-04-28T15:22:46.965Z</time></trkpt><trkpt lat="40.9915885" lon="16.9427821"><ele>160.85714285714286</ele><time>2026-04-28T15:22:47.964Z</time></trkpt><trkpt lat="40.9916389" lon="16.9428399"><ele>160.71428571428572</ele><time>2026-04-28T15:22:48.964Z</time></trkpt><trkpt lat="40.9916916" lon="16.9428953"><ele>160.57142857142856</ele><time>2026-04-28T15:22:49.964Z</time></trkpt><trkpt lat="40.9917434" lon="16.9429522"><ele>160.42857142857144</ele><time>2026-04-28T15:22:50.964Z</time></trkpt><trkpt lat="40.9917938" lon="16.94301"><ele>160.28571428571428</ele><time>2026-04-28T15:22:51.964Z</time></trkpt><trkpt lat="40.9918469" lon="16.9430651"><ele>160.14285714285714</ele><time>2026-04-28T15:22:52.964Z</time></trkpt><trkpt lat="40.9918985" lon="16.9431227"><ele>160.0</ele><time>2026-04-28T15:22:53.964Z</time></trkpt><trkpt lat="40.9919519" lon="16.9431776"><ele>160.0</ele><time>2026-04-28T15:22:54.964Z</time></trkpt><trkpt lat="40.9920049" lon="16.9432328"><ele>160.0</ele><time>2026-04-28T15:22:55.964Z</time></trkpt><trkpt lat="40.9920585" lon="16.9432853"><ele>160.0</ele><time>2026-04-28T15:22:56.964Z</time></trkpt><trkpt lat="40.992112" lon="16.9433359"><ele>160.0</ele><time>2026-04-28T15:22:57.964Z</time></trkpt><trkpt lat="40.9921638" lon="16.9433871"><ele>160.0</ele><time>2026-04-28T15:22:58.964Z</time></trkpt><trkpt lat="40.9922097" lon="16.9434475"><ele>160.0</ele><time>2026-04-28T15:22:59.964Z</time></trkpt><trkpt lat="40.9922587" lon="16.9435062"><ele>160.0</ele><time>2026-04-28T15:23:00.964Z</time></trkpt><trkpt lat="40.99231" lon="16.9435576"><ele>159.66666666666669</ele><time>2026-04-28T15:23:01.964Z</time></trkpt><trkpt lat="40.9923607" lon="16.9436074"><ele>159.33333333333334</ele><time>2026-04-28T15:23:02.964Z</time></trkpt><trkpt lat="40.9924114" lon="16.9436576"><ele>159.0</ele><time>2026-04-28T15:23:03.963Z</time></trkpt><trkpt lat="40.9925308" lon="16.9437229"><ele>158.66666666666666</ele><time>2026-04-28T15:23:05.964Z</time></trkpt><trkpt lat="40.9925962" lon="16.9437346"><ele>158.33333333333331</ele><time>2026-04-28T15:23:06.964Z</time></trkpt><trkpt lat="40.9926605" lon="16.9437319"><ele>158.0</ele><time>2026-04-28T15:23:07.964Z</time></trkpt><trkpt lat="40.9927501" lon="16.9436677"><ele>158.0</ele><time>2026-04-28T15:23:09.964Z</time></trkpt><trkpt lat="40.9927705" lon="16.943535"><ele>158.0</ele><time>2026-04-28T15:23:11.964Z</time></trkpt><trkpt lat="40.9927497" lon="16.9433865"><ele>158.0</ele><time>2026-04-28T15:23:13.964Z</time></trkpt><trkpt lat="40.992727" lon="16.9432217"><ele>158.0</ele><time>2026-04-28T15:23:15.964Z</time></trkpt><trkpt lat="40.9927138" lon="16.9430612"><ele>158.0</ele><time>2026-04-28T15:23:17.964Z</time></trkpt><trkpt lat="40.9927058" lon="16.9429759"><ele>158.0</ele><time>2026-04-28T15:23:18.964Z</time></trkpt><trkpt lat="40.9926995" lon="16.9428903"><ele>158.0</ele><time>2026-04-28T15:23:19.964Z</time></trkpt><trkpt lat="40.9926948" lon="16.9428037"><ele>158.0</ele><time>2026-04-28T15:23:20.964Z</time></trkpt><trkpt lat="40.9926868" lon="16.9426374"><ele>158.0</ele><time>2026-04-28T15:23:22.964Z</time></trkpt><trkpt lat="40.9926769" lon="16.9424722"><ele>158.0</ele><time>2026-04-28T15:23:24.964Z</time></trkpt><trkpt lat="40.9926672" lon="16.9423882"><ele>158.00000000000003</ele><time>2026-04-28T15:23:25.965Z</time></trkpt><trkpt lat="40.992662" lon="16.9423039"><ele>158.0</ele><time>2026-04-28T15:23:26.964Z</time></trkpt><trkpt lat="40.9926573" lon="16.942219"><ele>158.0</ele><time>2026-04-28T15:23:27.964Z</time></trkpt><trkpt lat="40.9926484" lon="16.9421357"><ele>158.0</ele><time>2026-04-28T15:23:28.964Z</time></trkpt><trkpt lat="40.9926348" lon="16.9419709"><ele>158.0</ele><time>2026-04-28T15:23:30.964Z</time></trkpt><trkpt lat="40.9926274" lon="16.9418845"><ele>158.00000000000003</ele><time>2026-04-28T15:23:31.964Z</time></trkpt><trkpt lat="40.9926248" lon="16.9418003"><ele>158.0</ele><time>2026-04-28T15:23:32.964Z</time></trkpt><trkpt lat="40.9926229" lon="16.9417145"><ele>158.16666666666666</ele><time>2026-04-28T15:23:33.965Z</time></trkpt><trkpt lat="40.9926193" lon="16.9416296"><ele>158.33333333333331</ele><time>2026-04-28T15:23:34.964Z</time></trkpt><trkpt lat="40.9926152" lon="16.9415456"><ele>158.5</ele><time>2026-04-28T15:23:35.965Z</time></trkpt><trkpt lat="40.9926044" lon="16.9414627"><ele>158.66666666666666</ele><time>2026-04-28T15:23:36.964Z</time></trkpt><trkpt lat="40.9925966" lon="16.9413041"><ele>158.83333333333334</ele><time>2026-04-28T15:23:38.964Z</time></trkpt><trkpt lat="40.9926689" lon="16.9412051"><ele>159.0</ele><time>2026-04-28T15:23:40.965Z</time></trkpt><trkpt lat="40.992779" lon="16.9411988"><ele>159.0</ele><time>2026-04-28T15:23:42.964Z</time></trkpt><trkpt lat="40.9929029" lon="16.9411835"><ele>159.0</ele><time>2026-04-28T15:23:44.965Z</time></trkpt><trkpt lat="40.9929683" lon="16.9411744"><ele>159.0</ele><time>2026-04-28T15:23:45.965Z</time></trkpt><trkpt lat="40.993033" lon="16.9411651"><ele>159.0</ele><time>2026-04-28T15:23:46.964Z</time></trkpt><trkpt lat="40.9930975" lon="16.9411632"><ele>159.0</ele><time>2026-04-28T15:23:47.964Z</time></trkpt><trkpt lat="40.9931637" lon="16.9411645"><ele>159.0</ele><time>2026-04-28T15:23:48.964Z</time></trkpt><trkpt lat="40.9932304" lon="16.9411586"><ele>159.0</ele><time>2026-04-28T15:23:49.964Z</time></trkpt><trkpt lat="40.9932938" lon="16.9411492"><ele>159.0</ele><time>2026-04-28T15:23:50.965Z</time></trkpt><trkpt lat="40.9933575" lon="16.9411418"><ele>159.0</ele><time>2026-04-28T15:23:51.964Z</time></trkpt><trkpt lat="40.9934213" lon="16.9411379"><ele>159.0</ele><time>2026-04-28T15:23:52.964Z</time></trkpt><trkpt lat="40.9935472" lon="16.9411259"><ele>159.0</ele><time>2026-04-28T15:23:54.965Z</time></trkpt><trkpt lat="40.9936113" lon="16.9411221"><ele>159.0</ele><time>2026-04-28T15:23:55.964Z</time></trkpt><trkpt lat="40.993735" lon="16.941111"><ele>159.0</ele><time>2026-04-28T15:23:57.965Z</time></trkpt><trkpt lat="40.9937977" lon="16.9411023"><ele>159.0</ele><time>2026-04-28T15:23:58.964Z</time></trkpt><trkpt lat="40.9938643" lon="16.9410904"><ele>159.0</ele><time>2026-04-28T15:23:59.965Z</time></trkpt><trkpt lat="40.9939894" lon="16.9410788"><ele>159.0</ele><time>2026-04-28T15:24:01.965Z</time></trkpt><trkpt lat="40.9940541" lon="16.9410692"><ele>159.0</ele><time>2026-04-28T15:24:02.964Z</time></trkpt><trkpt lat="40.9941176" lon="16.9410606"><ele>159.0</ele><time>2026-04-28T15:24:03.965Z</time></trkpt><trkpt lat="40.9941828" lon="16.941051"><ele>158.83333333333334</ele><time>2026-04-28T15:24:04.964Z</time></trkpt><trkpt lat="40.994247" lon="16.9410497"><ele>158.66666666666666</ele><time>2026-04-28T15:24:05.964Z</time></trkpt><trkpt lat="40.9943112" lon="16.9410431"><ele>158.5</ele><time>2026-04-28T15:24:06.964Z</time></trkpt><trkpt lat="40.9944363" lon="16.9410278"><ele>158.33333333333331</ele><time>2026-04-28T15:24:08.965Z</time></trkpt><trkpt lat="40.9945" lon="16.9410182"><ele>158.16666666666666</ele><time>2026-04-28T15:24:09.964Z</time></trkpt><trkpt lat="40.9946252" lon="16.9410074"><ele>158.0</ele><time>2026-04-28T15:24:11.964Z</time></trkpt><trkpt lat="40.9946887" lon="16.9409984"><ele>158.0</ele><time>2026-04-28T15:24:12.964Z</time></trkpt><trkpt lat="40.9947516" lon="16.9409899"><ele>158.0</ele><time>2026-04-28T15:24:13.964Z</time></trkpt><trkpt lat="40.9948761" lon="16.9409748"><ele>158.0</ele><time>2026-04-28T15:24:15.964Z</time></trkpt><trkpt lat="40.9949999" lon="16.9409594"><ele>158.0</ele><time>2026-04-28T15:24:17.964Z</time></trkpt><trkpt lat="40.9950668" lon="16.9409508"><ele>158.0</ele><time>2026-04-28T15:24:18.965Z</time></trkpt><trkpt lat="40.9951306" lon="16.9409422"><ele>158.0</ele><time>2026-04-28T15:24:19.964Z</time></trkpt><trkpt lat="40.9951959" lon="16.9409349"><ele>157.85714285714286</ele><time>2026-04-28T15:24:20.964Z</time></trkpt><trkpt lat="40.9952607" lon="16.9409309"><ele>157.71428571428572</ele><time>2026-04-28T15:24:21.964Z</time></trkpt><trkpt lat="40.9953263" lon="16.9409239"><ele>157.57142857142856</ele><time>2026-04-28T15:24:22.964Z</time></trkpt><trkpt lat="40.9953899" lon="16.9409175"><ele>157.42857142857144</ele><time>2026-04-28T15:24:23.965Z</time></trkpt><trkpt lat="40.9954533" lon="16.9409106"><ele>157.28571428571428</ele><time>2026-04-28T15:24:24.964Z</time></trkpt><trkpt lat="40.9955164" lon="16.9409047"><ele>157.14285714285714</ele><time>2026-04-28T15:24:25.964Z</time></trkpt><trkpt lat="40.9956406" lon="16.9408906"><ele>157.0</ele><time>2026-04-28T15:24:27.965Z</time></trkpt><trkpt lat="40.9957043" lon="16.9408827"><ele>157.0</ele><time>2026-04-28T15:24:28.964Z</time></trkpt><trkpt lat="40.9958261" lon="16.9408678"><ele>157.0</ele><time>2026-04-28T15:24:30.964Z</time></trkpt><trkpt lat="40.9958892" lon="16.9408634"><ele>157.0</ele><time>2026-04-28T15:24:31.965Z</time></trkpt><trkpt lat="40.9959537" lon="16.9408574"><ele>157.0</ele><time>2026-04-28T15:24:32.964Z</time></trkpt><trkpt lat="40.9960179" lon="16.9408504"><ele>157.0</ele><time>2026-04-28T15:24:33.964Z</time></trkpt><trkpt lat="40.9961427" lon="16.9408444"><ele>157.0</ele><time>2026-04-28T15:24:35.964Z</time></trkpt><trkpt lat="40.9962062" lon="16.9408445"><ele>156.7142857142857</ele><time>2026-04-28T15:24:36.965Z</time></trkpt><trkpt lat="40.9962705" lon="16.9408445"><ele>156.42857142857142</ele><time>2026-04-28T15:24:37.964Z</time></trkpt><trkpt lat="40.9963366" lon="16.9408431"><ele>156.14285714285714</ele><time>2026-04-28T15:24:38.964Z</time></trkpt><trkpt lat="40.9964003" lon="16.9408404"><ele>155.85714285714283</ele><time>2026-04-28T15:24:39.965Z</time></trkpt><trkpt lat="40.9964683" lon="16.9408367"><ele>155.57142857142856</ele><time>2026-04-28T15:24:40.965Z</time></trkpt><trkpt lat="40.9965312" lon="16.9408298"><ele>155.28571428571428</ele><time>2026-04-28T15:24:41.964Z</time></trkpt><trkpt lat="40.9965956" lon="16.9408294"><ele>155.0</ele><time>2026-04-28T15:24:42.964Z</time></trkpt><trkpt lat="40.9966611" lon="16.9408287"><ele>154.85714285714286</ele><time>2026-04-28T15:24:43.964Z</time></trkpt><trkpt lat="40.9967294" lon="16.9408263"><ele>154.71428571428572</ele><time>2026-04-28T15:24:44.964Z</time></trkpt><trkpt lat="40.996795" lon="16.9408281"><ele>154.57142857142856</ele><time>2026-04-28T15:24:45.964Z</time></trkpt><trkpt lat="40.9968583" lon="16.9408245"><ele>154.42857142857144</ele><time>2026-04-28T15:24:46.964Z</time></trkpt><trkpt lat="40.9969224" lon="16.9408176"><ele>154.28571428571428</ele><time>2026-04-28T15:24:47.964Z</time></trkpt><trkpt lat="40.9969876" lon="16.9408153"><ele>154.14285714285714</ele><time>2026-04-28T15:24:48.964Z</time></trkpt><trkpt lat="40.9970542" lon="16.9408144"><ele>154.0</ele><time>2026-04-28T15:24:49.964Z</time></trkpt><trkpt lat="40.9971201" lon="16.940816"><ele>154.0</ele><time>2026-04-28T15:24:50.963Z</time></trkpt><trkpt lat="40.9971843" lon="16.9408145"><ele>154.0</ele><time>2026-04-28T15:24:51.963Z</time></trkpt><trkpt lat="40.9972722" lon="16.9407537"><ele>154.0</ele><time>2026-04-28T15:24:53.963Z</time></trkpt><trkpt lat="40.9972655" lon="16.9406301"><ele>154.0</ele><time>2026-04-28T15:24:55.963Z</time></trkpt><trkpt lat="40.9972243" lon="16.9405025"><ele>154.0</ele><time>2026-04-28T15:24:57.963Z</time></trkpt><trkpt lat="40.9971886" lon="16.9403538"><ele>154.0</ele><time>2026-04-28T15:24:59.964Z</time></trkpt><trkpt lat="40.9971488" lon="16.940198"><ele>154.0</ele><time>2026-04-28T15:25:01.963Z</time></trkpt><trkpt lat="40.9971099" lon="16.9400421"><ele>154.0</ele><time>2026-04-28T15:25:03.963Z</time></trkpt><trkpt lat="40.9970776" lon="16.939884"><ele>154.0</ele><time>2026-04-28T15:25:05.963Z</time></trkpt><trkpt lat="40.9970578" lon="16.9397235"><ele>154.25</ele><time>2026-04-28T15:25:07.964Z</time></trkpt><trkpt lat="40.9970414" lon="16.9395571"><ele>154.5</ele><time>2026-04-28T15:25:09.963Z</time></trkpt><trkpt lat="40.9970256" lon="16.9393943"><ele>154.75</ele><time>2026-04-28T15:25:11.963Z</time></trkpt><trkpt lat="40.9970299" lon="16.939227"><ele>155.0</ele><time>2026-04-28T15:25:13.964Z</time></trkpt><trkpt lat="40.9970376" lon="16.9390556"><ele>155.16666666666666</ele><time>2026-04-28T15:25:15.963Z</time></trkpt><trkpt lat="40.9970425" lon="16.9389676"><ele>155.33333333333331</ele><time>2026-04-28T15:25:16.963Z</time></trkpt><trkpt lat="40.9970551" lon="16.9387998"><ele>155.5</ele><time>2026-04-28T15:25:18.963Z</time></trkpt><trkpt lat="40.9970608" lon="16.9387137"><ele>155.66666666666666</ele><time>2026-04-28T15:25:19.963Z</time></trkpt><trkpt lat="40.997065" lon="16.9386256"><ele>155.83333333333334</ele><time>2026-04-28T15:25:20.963Z</time></trkpt><trkpt lat="40.9970715" lon="16.9385395"><ele>156.0</ele><time>2026-04-28T15:25:21.964Z</time></trkpt><trkpt lat="40.9970619" lon="16.9384521"><ele>156.14285714285714</ele><time>2026-04-28T15:25:22.963Z</time></trkpt><trkpt lat="40.9970408" lon="16.9383681"><ele>156.28571428571428</ele><time>2026-04-28T15:25:23.963Z</time></trkpt><trkpt lat="40.9970164" lon="16.9382869"><ele>156.42857142857142</ele><time>2026-04-28T15:25:24.963Z</time></trkpt><trkpt lat="40.9969967" lon="16.9382008"><ele>156.57142857142856</ele><time>2026-04-28T15:25:25.964Z</time></trkpt><trkpt lat="40.9969779" lon="16.9381169"><ele>156.71428571428572</ele><time>2026-04-28T15:25:26.963Z</time></trkpt><trkpt lat="40.9969571" lon="16.9380317"><ele>156.85714285714283</ele><time>2026-04-28T15:25:27.963Z</time></trkpt><trkpt lat="40.9969377" lon="16.9379452"><ele>157.0</ele><time>2026-04-28T15:25:28.964Z</time></trkpt><trkpt lat="40.9969196" lon="16.9378589"><ele>156.99999999999997</ele><time>2026-04-28T15:25:29.963Z</time></trkpt><trkpt lat="40.996903" lon="16.9377717"><ele>157.0</ele><time>2026-04-28T15:25:30.963Z</time></trkpt><trkpt lat="40.9968929" lon="16.9376827"><ele>157.0</ele><time>2026-04-28T15:25:31.963Z</time></trkpt><trkpt lat="40.9968939" lon="16.9375939"><ele>157.0</ele><time>2026-04-28T15:25:32.963Z</time></trkpt><trkpt lat="40.9968994" lon="16.9375053"><ele>157.0</ele><time>2026-04-28T15:25:33.963Z</time></trkpt><trkpt lat="40.9969028" lon="16.9374151"><ele>156.99999999999997</ele><time>2026-04-28T15:25:34.963Z</time></trkpt><trkpt lat="40.9969058" lon="16.9373275"><ele>157.0</ele><time>2026-04-28T15:25:35.963Z</time></trkpt><trkpt lat="40.9969121" lon="16.9372445"><ele>157.0</ele><time>2026-04-28T15:25:36.964Z</time></trkpt><trkpt lat="40.9969142" lon="16.9371562"><ele>157.0</ele><time>2026-04-28T15:25:37.963Z</time></trkpt><trkpt lat="40.9969186" lon="16.9370683"><ele>157.0</ele><time>2026-04-28T15:25:38.963Z</time></trkpt><trkpt lat="40.9969132" lon="16.9369024"><ele>157.0</ele><time>2026-04-28T15:25:40.964Z</time></trkpt><trkpt lat="40.9969042" lon="16.9368163"><ele>157.0</ele><time>2026-04-28T15:25:41.963Z</time></trkpt><trkpt lat="40.9968908" lon="16.9366483"><ele>157.0</ele><time>2026-04-28T15:25:43.963Z</time></trkpt><trkpt lat="40.9968851" lon="16.936564"><ele>157.0</ele><time>2026-04-28T15:25:44.963Z</time></trkpt><trkpt lat="40.996878" lon="16.9364765"><ele>157.0</ele><time>2026-04-28T15:25:45.964Z</time></trkpt><trkpt lat="40.9968626" lon="16.9363111"><ele>157.0</ele><time>2026-04-28T15:25:47.963Z</time></trkpt><trkpt lat="40.9968303" lon="16.9361532"><ele>157.0</ele><time>2026-04-28T15:25:49.963Z</time></trkpt><trkpt lat="40.9968011" lon="16.9359905"><ele>157.0</ele><time>2026-04-28T15:25:51.964Z</time></trkpt><trkpt lat="40.9967767" lon="16.9358319"><ele>157.0</ele><time>2026-04-28T15:25:53.963Z</time></trkpt><trkpt lat="40.9967756" lon="16.9357445"><ele>157.0</ele><time>2026-04-28T15:25:54.964Z</time></trkpt><trkpt lat="40.9967768" lon="16.9356594"><ele>157.0</ele><time>2026-04-28T15:25:55.964Z</time></trkpt><trkpt lat="40.9967707" lon="16.9355762"><ele>157.0</ele><time>2026-04-28T15:25:56.963Z</time></trkpt><trkpt lat="40.9967665" lon="16.9354094"><ele>157.0</ele><time>2026-04-28T15:25:58.964Z</time></trkpt><trkpt lat="40.9967637" lon="16.9352431"><ele>157.0</ele><time>2026-04-28T15:26:00.963Z</time></trkpt><trkpt lat="40.9967643" lon="16.9351586"><ele>157.0</ele><time>2026-04-28T15:26:01.963Z</time></trkpt><trkpt lat="40.9967615" lon="16.9350739"><ele>157.0</ele><time>2026-04-28T15:26:02.964Z</time></trkpt><trkpt lat="40.9967522" lon="16.9349088"><ele>157.0</ele><time>2026-04-28T15:26:04.963Z</time></trkpt><trkpt lat="40.9967464" lon="16.9347484"><ele>157.0</ele><time>2026-04-28T15:26:06.963Z</time></trkpt><trkpt lat="40.9967396" lon="16.9346013"><ele>157.0</ele><time>2026-04-28T15:26:08.963Z</time></trkpt><trkpt lat="40.9967511" lon="16.934456"><ele>157.0</ele><time>2026-04-28T15:26:10.963Z</time></trkpt><trkpt lat="40.9967449" lon="16.9343238"><ele>157.0</ele><time>2026-04-28T15:26:12.963Z</time></trkpt><trkpt lat="40.996742" lon="16.9341833"><ele>157.0</ele><time>2026-04-28T15:26:14.963Z</time></trkpt><trkpt lat="40.9967417" lon="16.9340316"><ele>157.0</ele><time>2026-04-28T15:26:16.963Z</time></trkpt><trkpt lat="40.9967378" lon="16.933866"><ele>156.79999999999998</ele><time>2026-04-28T15:26:18.962Z</time></trkpt><trkpt lat="40.9967346" lon="16.9337015"><ele>156.6</ele><time>2026-04-28T15:26:20.964Z</time></trkpt><trkpt lat="40.9967337" lon="16.9335348"><ele>156.39999999999998</ele><time>2026-04-28T15:26:22.963Z</time></trkpt><trkpt lat="40.9967346" lon="16.9334505"><ele>156.2</ele><time>2026-04-28T15:26:23.963Z</time></trkpt><trkpt lat="40.9967343" lon="16.9332851"><ele>156.0</ele><time>2026-04-28T15:26:25.963Z</time></trkpt><trkpt lat="40.9967327" lon="16.9331995"><ele>156.0</ele><time>2026-04-28T15:26:26.964Z</time></trkpt><trkpt lat="40.9967314" lon="16.9330293"><ele>156.0</ele><time>2026-04-28T15:26:28.964Z</time></trkpt><trkpt lat="40.996741" lon="16.9328648"><ele>156.0</ele><time>2026-04-28T15:26:30.965Z</time></trkpt><trkpt lat="40.9967497" lon="16.9327804"><ele>156.0</ele><time>2026-04-28T15:26:31.963Z</time></trkpt><trkpt lat="40.9967626" lon="16.9326967"><ele>156.0</ele><time>2026-04-28T15:26:32.965Z</time></trkpt><trkpt lat="40.9967942" lon="16.9325337"><ele>156.0</ele><time>2026-04-28T15:26:34.963Z</time></trkpt><trkpt lat="40.9968127" lon="16.9324515"><ele>156.0</ele><time>2026-04-28T15:26:35.963Z</time></trkpt><trkpt lat="40.9968413" lon="16.9322882"><ele>156.0</ele><time>2026-04-28T15:26:37.963Z</time></trkpt><trkpt lat="40.996859" lon="16.9322058"><ele>156.0</ele><time>2026-04-28T15:26:38.963Z</time></trkpt><trkpt lat="40.996895" lon="16.9320474"><ele>156.0</ele><time>2026-04-28T15:26:40.963Z</time></trkpt><trkpt lat="40.9969106" lon="16.9319654"><ele>156.0</ele><time>2026-04-28T15:26:41.964Z</time></trkpt><trkpt lat="40.9969431" lon="16.9318039"><ele>156.0</ele><time>2026-04-28T15:26:43.963Z</time></trkpt><trkpt lat="40.9969592" lon="16.9317221"><ele>156.0</ele><time>2026-04-28T15:26:44.964Z</time></trkpt><trkpt lat="40.996975" lon="16.9316383"><ele>156.0</ele><time>2026-04-28T15:26:45.963Z</time></trkpt><trkpt lat="40.9969939" lon="16.931557"><ele>156.0</ele><time>2026-04-28T15:26:46.963Z</time></trkpt><trkpt lat="40.9970119" lon="16.9314742"><ele>156.0</ele><time>2026-04-28T15:26:47.964Z</time></trkpt><trkpt lat="40.997027" lon="16.9313899"><ele>156.0</ele><time>2026-04-28T15:26:48.964Z</time></trkpt><trkpt lat="40.9970434" lon="16.9313045"><ele>156.0</ele><time>2026-04-28T15:26:49.963Z</time></trkpt><trkpt lat="40.9970602" lon="16.931221"><ele>156.0</ele><time>2026-04-28T15:26:50.963Z</time></trkpt><trkpt lat="40.9970762" lon="16.9311369"><ele>156.0</ele><time>2026-04-28T15:26:51.963Z</time></trkpt><trkpt lat="40.9970923" lon="16.9310519"><ele>156.0</ele><time>2026-04-28T15:26:52.964Z</time></trkpt><trkpt lat="40.9971046" lon="16.9309658"><ele>156.0</ele><time>2026-04-28T15:26:53.963Z</time></trkpt><trkpt lat="40.9971129" lon="16.9308786"><ele>156.0</ele><time>2026-04-28T15:26:54.964Z</time></trkpt><trkpt lat="40.997124" lon="16.9307932"><ele>156.0</ele><time>2026-04-28T15:26:55.963Z</time></trkpt><trkpt lat="40.9971362" lon="16.9307079"><ele>156.0</ele><time>2026-04-28T15:26:56.963Z</time></trkpt><trkpt lat="40.997147" lon="16.9306232"><ele>156.0</ele><time>2026-04-28T15:26:57.963Z</time></trkpt><trkpt lat="40.9971562" lon="16.9305354"><ele>156.0</ele><time>2026-04-28T15:26:58.964Z</time></trkpt><trkpt lat="40.9971662" lon="16.9304492"><ele>156.0</ele><time>2026-04-28T15:26:59.963Z</time></trkpt><trkpt lat="40.9971763" lon="16.9303629"><ele>156.0</ele><time>2026-04-28T15:27:00.965Z</time></trkpt><trkpt lat="40.9971848" lon="16.9302756"><ele>156.0</ele><time>2026-04-28T15:27:01.963Z</time></trkpt><trkpt lat="40.9971942" lon="16.9301914"><ele>156.0</ele><time>2026-04-28T15:27:02.963Z</time></trkpt><trkpt lat="40.9972067" lon="16.9301044"><ele>156.0</ele><time>2026-04-28T15:27:03.963Z</time></trkpt><trkpt lat="40.9972183" lon="16.9300199"><ele>156.0</ele><time>2026-04-28T15:27:04.963Z</time></trkpt><trkpt lat="40.9972257" lon="16.9299331"><ele>156.0</ele><time>2026-04-28T15:27:05.963Z</time></trkpt><trkpt lat="40.9972352" lon="16.929848"><ele>156.0</ele><time>2026-04-28T15:27:06.963Z</time></trkpt><trkpt lat="40.9972458" lon="16.9297614"><ele>156.0</ele><time>2026-04-28T15:27:07.963Z</time></trkpt><trkpt lat="40.9972562" lon="16.9296764"><ele>156.0</ele><time>2026-04-28T15:27:08.964Z</time></trkpt><trkpt lat="40.9972672" lon="16.9295922"><ele>156.0</ele><time>2026-04-28T15:27:09.963Z</time></trkpt><trkpt lat="40.9972766" lon="16.9295067"><ele>156.0</ele><time>2026-04-28T15:27:10.963Z</time></trkpt><trkpt lat="40.9972873" lon="16.929421"><ele>156.0</ele><time>2026-04-28T15:27:11.964Z</time></trkpt><trkpt lat="40.9973012" lon="16.9293375"><ele>156.0</ele><time>2026-04-28T15:27:12.963Z</time></trkpt><trkpt lat="40.9973145" lon="16.929254"><ele>156.0</ele><time>2026-04-28T15:27:13.963Z</time></trkpt><trkpt lat="40.9973242" lon="16.9291677"><ele>156.0</ele><time>2026-04-28T15:27:14.963Z</time></trkpt><trkpt lat="40.9973344" lon="16.9290851"><ele>156.0</ele><time>2026-04-28T15:27:15.964Z</time></trkpt><trkpt lat="40.997342" lon="16.9290023"><ele>156.0</ele><time>2026-04-28T15:27:16.964Z</time></trkpt><trkpt lat="40.9973522" lon="16.9289176"><ele>156.0</ele><time>2026-04-28T15:27:17.964Z</time></trkpt><trkpt lat="40.9973733" lon="16.9287519"><ele>156.0</ele><time>2026-04-28T15:27:19.963Z</time></trkpt><trkpt lat="40.9973808" lon="16.9286671"><ele>156.0</ele><time>2026-04-28T15:27:20.964Z</time></trkpt><trkpt lat="40.9973826" lon="16.9285027"><ele>156.0</ele><time>2026-04-28T15:27:22.963Z</time></trkpt><trkpt lat="40.9973776" lon="16.9283398"><ele>156.0</ele><time>2026-04-28T15:27:24.963Z</time></trkpt><trkpt lat="40.9973664" lon="16.9281748"><ele>156.0</ele><time>2026-04-28T15:27:26.963Z</time></trkpt><trkpt lat="40.9973528" lon="16.9280151"><ele>156.0</ele><time>2026-04-28T15:27:28.963Z</time></trkpt><trkpt lat="40.9973322" lon="16.9278552"><ele>156.0</ele><time>2026-04-28T15:27:30.963Z</time></trkpt><trkpt lat="40.9973038" lon="16.9276895"><ele>156.0</ele><time>2026-04-28T15:27:32.963Z</time></trkpt><trkpt lat="40.9972799" lon="16.9276092"><ele>156.0</ele><time>2026-04-28T15:27:33.964Z</time></trkpt><trkpt lat="40.997255" lon="16.9275291"><ele>156.0</ele><time>2026-04-28T15:27:34.963Z</time></trkpt><trkpt lat="40.9972061" lon="16.9273805"><ele>156.0</ele><time>2026-04-28T15:27:36.964Z</time></trkpt><trkpt lat="40.9971797" lon="16.9272333"><ele>156.0</ele><time>2026-04-28T15:27:38.963Z</time></trkpt><trkpt lat="40.9971807" lon="16.9270752"><ele>156.0</ele><time>2026-04-28T15:27:40.963Z</time></trkpt><trkpt lat="40.9972005" lon="16.9269118"><ele>156.0</ele><time>2026-04-28T15:27:42.963Z</time></trkpt><trkpt lat="40.997224" lon="16.9267473"><ele>155.85714285714286</ele><time>2026-04-28T15:27:44.963Z</time></trkpt><trkpt lat="40.9972409" lon="16.926665"><ele>155.7142857142857</ele><time>2026-04-28T15:27:45.963Z</time></trkpt><trkpt lat="40.9972644" lon="16.9265845"><ele>155.57142857142856</ele><time>2026-04-28T15:27:46.963Z</time></trkpt><trkpt lat="40.9972939" lon="16.9265079"><ele>155.42857142857144</ele><time>2026-04-28T15:27:47.963Z</time></trkpt><trkpt lat="40.9973277" lon="16.9264347"><ele>155.28571428571428</ele><time>2026-04-28T15:27:48.964Z</time></trkpt><trkpt lat="40.9973649" lon="16.9263654"><ele>155.14285714285714</ele><time>2026-04-28T15:27:49.963Z</time></trkpt><trkpt lat="40.9973997" lon="16.9262911"><ele>155.0</ele><time>2026-04-28T15:27:50.963Z</time></trkpt><trkpt lat="40.997453" lon="16.9261397"><ele>155.0</ele><time>2026-04-28T15:27:52.963Z</time></trkpt><trkpt lat="40.9974751" lon="16.9260591"><ele>155.0</ele><time>2026-04-28T15:27:53.963Z</time></trkpt><trkpt lat="40.9974923" lon="16.9259763"><ele>155.0</ele><time>2026-04-28T15:27:54.963Z</time></trkpt><trkpt lat="40.997507" lon="16.9258915"><ele>155.0</ele><time>2026-04-28T15:27:55.964Z</time></trkpt><trkpt lat="40.9975147" lon="16.9258072"><ele>155.0</ele><time>2026-04-28T15:27:56.964Z</time></trkpt><trkpt lat="40.9975301" lon="16.9256392"><ele>155.0</ele><time>2026-04-28T15:27:58.963Z</time></trkpt><trkpt lat="40.9975341" lon="16.9255556"><ele>155.0</ele><time>2026-04-28T15:27:59.963Z</time></trkpt><trkpt lat="40.9975407" lon="16.9254706"><ele>155.0</ele><time>2026-04-28T15:28:00.963Z</time></trkpt><trkpt lat="40.9975479" lon="16.9253877"><ele>155.0</ele><time>2026-04-28T15:28:01.963Z</time></trkpt><trkpt lat="40.9975534" lon="16.9253"><ele>155.0</ele><time>2026-04-28T15:28:02.963Z</time></trkpt><trkpt lat="40.9975611" lon="16.925212"><ele>155.0</ele><time>2026-04-28T15:28:03.963Z</time></trkpt><trkpt lat="40.9975631" lon="16.9251259"><ele>155.0</ele><time>2026-04-28T15:28:04.964Z</time></trkpt><trkpt lat="40.9975634" lon="16.9250406"><ele>155.0</ele><time>2026-04-28T15:28:05.964Z</time></trkpt><trkpt lat="40.997567" lon="16.9249566"><ele>155.16666666666666</ele><time>2026-04-28T15:28:06.963Z</time></trkpt><trkpt lat="40.9975694" lon="16.9248723"><ele>155.33333333333331</ele><time>2026-04-28T15:28:07.963Z</time></trkpt><trkpt lat="40.9975754" lon="16.9247834"><ele>155.5</ele><time>2026-04-28T15:28:08.962Z</time></trkpt><trkpt lat="40.9975857" lon="16.9246984"><ele>155.66666666666666</ele><time>2026-04-28T15:28:09.963Z</time></trkpt><trkpt lat="40.9975896" lon="16.9246139"><ele>155.83333333333334</ele><time>2026-04-28T15:28:10.963Z</time></trkpt><trkpt lat="40.9975928" lon="16.9244461"><ele>156.0</ele><time>2026-04-28T15:28:12.963Z</time></trkpt><trkpt lat="40.9976014" lon="16.924279"><ele>156.2</ele><time>2026-04-28T15:28:14.964Z</time></trkpt><trkpt lat="40.9976048" lon="16.9241946"><ele>156.39999999999998</ele><time>2026-04-28T15:28:15.963Z</time></trkpt><trkpt lat="40.9976147" lon="16.9240276"><ele>156.6</ele><time>2026-04-28T15:28:17.963Z</time></trkpt><trkpt lat="40.9976202" lon="16.9238702"><ele>156.79999999999998</ele><time>2026-04-28T15:28:19.964Z</time></trkpt><trkpt lat="40.9975997" lon="16.9237319"><ele>157.0</ele><time>2026-04-28T15:28:21.963Z</time></trkpt><trkpt lat="40.9975551" lon="16.9236239"><ele>157.0</ele><time>2026-04-28T15:28:23.963Z</time></trkpt><trkpt lat="40.9975024" lon="16.923533"><ele>157.0</ele><time>2026-04-28T15:28:25.963Z</time></trkpt><trkpt lat="40.9974628" lon="16.923411"><ele>157.0</ele><time>2026-04-28T15:28:27.962Z</time></trkpt><trkpt lat="40.9974678" lon="16.9232592"><ele>157.0</ele><time>2026-04-28T15:28:29.963Z</time></trkpt><trkpt lat="40.9975158" lon="16.9231137"><ele>157.0</ele><time>2026-04-28T15:28:31.963Z</time></trkpt><trkpt lat="40.9975692" lon="16.9229646"><ele>157.0</ele><time>2026-04-28T15:28:33.964Z</time></trkpt><trkpt lat="40.9975968" lon="16.9228884"><ele>157.0</ele><time>2026-04-28T15:28:34.963Z</time></trkpt><trkpt lat="40.9976478" lon="16.9227334"><ele>157.0</ele><time>2026-04-28T15:28:36.964Z</time></trkpt><trkpt lat="40.9976708" lon="16.9226531"><ele>157.0</ele><time>2026-04-28T15:28:37.963Z</time></trkpt><trkpt lat="40.9976908" lon="16.9225707"><ele>157.0</ele><time>2026-04-28T15:28:38.963Z</time></trkpt><trkpt lat="40.9976987" lon="16.9224847"><ele>157.0</ele><time>2026-04-28T15:28:39.963Z</time></trkpt><trkpt lat="40.9977078" lon="16.9224003"><ele>157.0</ele><time>2026-04-28T15:28:40.963Z</time></trkpt><trkpt lat="40.9977308" lon="16.9222332"><ele>157.0</ele><time>2026-04-28T15:28:42.964Z</time></trkpt><trkpt lat="40.9977432" lon="16.9221484"><ele>157.0</ele><time>2026-04-28T15:28:43.963Z</time></trkpt><trkpt lat="40.9977549" lon="16.9220654"><ele>157.0</ele><time>2026-04-28T15:28:44.963Z</time></trkpt><trkpt lat="40.9977644" lon="16.9219799"><ele>157.0</ele><time>2026-04-28T15:28:45.963Z</time></trkpt><trkpt lat="40.9977782" lon="16.9218127"><ele>157.0</ele><time>2026-04-28T15:28:47.963Z</time></trkpt><trkpt lat="40.9977894" lon="16.921729"><ele>157.0</ele><time>2026-04-28T15:28:48.963Z</time></trkpt><trkpt lat="40.9977998" lon="16.9216438"><ele>157.0</ele><time>2026-04-28T15:28:49.964Z</time></trkpt><trkpt lat="40.9978084" lon="16.9215586"><ele>157.0</ele><time>2026-04-28T15:28:50.963Z</time></trkpt><trkpt lat="40.9978333" lon="16.9213957"><ele>157.0</ele><time>2026-04-28T15:28:52.963Z</time></trkpt><trkpt lat="40.9978464" lon="16.9213119"><ele>157.0</ele><time>2026-04-28T15:28:53.963Z</time></trkpt><trkpt lat="40.9978602" lon="16.9212288"><ele>157.0</ele><time>2026-04-28T15:28:54.963Z</time></trkpt><trkpt lat="40.9978939" lon="16.9210663"><ele>156.99999999999997</ele><time>2026-04-28T15:28:56.963Z</time></trkpt><trkpt lat="40.9979128" lon="16.9209865"><ele>157.0</ele><time>2026-04-28T15:28:57.963Z</time></trkpt><trkpt lat="40.9979255" lon="16.9208217"><ele>157.0</ele><time>2026-04-28T15:28:59.963Z</time></trkpt><trkpt lat="40.9979333" lon="16.9207365"><ele>157.0</ele><time>2026-04-28T15:29:00.963Z</time></trkpt><trkpt lat="40.9979403" lon="16.9206509"><ele>157.0</ele><time>2026-04-28T15:29:01.963Z</time></trkpt><trkpt lat="40.9979525" lon="16.9205669"><ele>156.99999999999997</ele><time>2026-04-28T15:29:02.963Z</time></trkpt><trkpt lat="40.9979641" lon="16.9204815"><ele>157.0</ele><time>2026-04-28T15:29:03.964Z</time></trkpt><trkpt lat="40.9979757" lon="16.9203973"><ele>156.85714285714283</ele><time>2026-04-28T15:29:04.963Z</time></trkpt><trkpt lat="40.9979881" lon="16.9203128"><ele>156.71428571428572</ele><time>2026-04-28T15:29:05.964Z</time></trkpt><trkpt lat="40.9979986" lon="16.9202293"><ele>156.57142857142856</ele><time>2026-04-28T15:29:06.963Z</time></trkpt><trkpt lat="40.9980135" lon="16.9201446"><ele>156.42857142857142</ele><time>2026-04-28T15:29:07.963Z</time></trkpt><trkpt lat="40.9980379" lon="16.9200648"><ele>156.28571428571428</ele><time>2026-04-28T15:29:08.963Z</time></trkpt><trkpt lat="40.9980519" lon="16.9199795"><ele>156.14285714285714</ele><time>2026-04-28T15:29:09.963Z</time></trkpt><trkpt lat="40.998067" lon="16.9198969"><ele>156.0</ele><time>2026-04-28T15:29:10.964Z</time></trkpt><trkpt lat="40.9980791" lon="16.9198129"><ele>156.0</ele><time>2026-04-28T15:29:11.963Z</time></trkpt><trkpt lat="40.9980906" lon="16.9197288"><ele>156.0</ele><time>2026-04-28T15:29:12.963Z</time></trkpt><trkpt lat="40.9980942" lon="16.9196448"><ele>156.0</ele><time>2026-04-28T15:29:13.964Z</time></trkpt><trkpt lat="40.9980812" lon="16.9195593"><ele>156.0</ele><time>2026-04-28T15:29:14.963Z</time></trkpt><trkpt lat="40.9980748" lon="16.9194744"><ele>156.0</ele><time>2026-04-28T15:29:15.963Z</time></trkpt><trkpt lat="40.9980668" lon="16.919388"><ele>156.0</ele><time>2026-04-28T15:29:16.963Z</time></trkpt><trkpt lat="40.9980658" lon="16.9193011"><ele>156.0</ele><time>2026-04-28T15:29:17.963Z</time></trkpt><trkpt lat="40.9980725" lon="16.9192134"><ele>156.2</ele><time>2026-04-28T15:29:18.963Z</time></trkpt><trkpt lat="40.9980857" lon="16.9190508"><ele>156.39999999999998</ele><time>2026-04-28T15:29:20.964Z</time></trkpt><trkpt lat="40.9981151" lon="16.9188919"><ele>156.6</ele><time>2026-04-28T15:29:22.963Z</time></trkpt><trkpt lat="40.9981388" lon="16.9188137"><ele>156.79999999999998</ele><time>2026-04-28T15:29:23.963Z</time></trkpt><trkpt lat="40.9981622" lon="16.918736"><ele>157.0</ele><time>2026-04-28T15:29:24.963Z</time></trkpt><trkpt lat="40.9982103" lon="16.9185833"><ele>157.0</ele><time>2026-04-28T15:29:26.962Z</time></trkpt><trkpt lat="40.9982573" lon="16.9184284"><ele>157.0</ele><time>2026-04-28T15:29:28.964Z</time></trkpt><trkpt lat="40.9982772" lon="16.9183492"><ele>157.0</ele><time>2026-04-28T15:29:29.963Z</time></trkpt><trkpt lat="40.9983228" lon="16.918195"><ele>157.0</ele><time>2026-04-28T15:29:31.963Z</time></trkpt><trkpt lat="40.9983471" lon="16.9181178"><ele>157.0</ele><time>2026-04-28T15:29:32.962Z</time></trkpt><trkpt lat="40.9983691" lon="16.9180382"><ele>157.0</ele><time>2026-04-28T15:29:33.963Z</time></trkpt><trkpt lat="40.9983934" lon="16.9179602"><ele>156.83333333333334</ele><time>2026-04-28T15:29:34.964Z</time></trkpt><trkpt lat="40.9984173" lon="16.9178818"><ele>156.66666666666669</ele><time>2026-04-28T15:29:35.963Z</time></trkpt><trkpt lat="40.99844" lon="16.9178036"><ele>156.5</ele><time>2026-04-28T15:29:36.963Z</time></trkpt><trkpt lat="40.9984644" lon="16.9177253"><ele>156.33333333333334</ele><time>2026-04-28T15:29:37.963Z</time></trkpt><trkpt lat="40.9984877" lon="16.917647"><ele>156.16666666666666</ele><time>2026-04-28T15:29:38.963Z</time></trkpt><trkpt lat="40.9985309" lon="16.9174915"><ele>156.0</ele><time>2026-04-28T15:29:40.963Z</time></trkpt><trkpt lat="40.9985758" lon="16.9173377"><ele>155.8</ele><time>2026-04-28T15:29:42.963Z</time></trkpt><trkpt lat="40.9986161" lon="16.917183"><ele>155.6</ele><time>2026-04-28T15:29:44.964Z</time></trkpt><trkpt lat="40.9986669" lon="16.9170343"><ele>155.4</ele><time>2026-04-28T15:29:46.964Z</time></trkpt><trkpt lat="40.9986858" lon="16.9169546"><ele>155.2</ele><time>2026-04-28T15:29:47.963Z</time></trkpt><trkpt lat="40.9987341" lon="16.9168014"><ele>155.0</ele><time>2026-04-28T15:29:49.963Z</time></trkpt><trkpt lat="40.9987574" lon="16.9167225"><ele>155.0</ele><time>2026-04-28T15:29:50.963Z</time></trkpt><trkpt lat="40.9987842" lon="16.9166449"><ele>155.0</ele><time>2026-04-28T15:29:51.963Z</time></trkpt><trkpt lat="40.9988074" lon="16.9165669"><ele>155.0</ele><time>2026-04-28T15:29:52.963Z</time></trkpt><trkpt lat="40.998857" lon="16.916414"><ele>155.0</ele><time>2026-04-28T15:29:54.963Z</time></trkpt><trkpt lat="40.9988779" lon="16.9163347"><ele>155.0</ele><time>2026-04-28T15:29:55.963Z</time></trkpt><trkpt lat="40.9989175" lon="16.9161818"><ele>155.0</ele><time>2026-04-28T15:29:57.963Z</time></trkpt><trkpt lat="40.9989389" lon="16.9161029"><ele>155.0</ele><time>2026-04-28T15:29:58.963Z</time></trkpt><trkpt lat="40.9989869" lon="16.9159501"><ele>155.0</ele><time>2026-04-28T15:30:00.963Z</time></trkpt><trkpt lat="40.9990132" lon="16.9158692"><ele>155.0</ele><time>2026-04-28T15:30:01.963Z</time></trkpt><trkpt lat="40.999038" lon="16.9157917"><ele>155.0</ele><time>2026-04-28T15:30:02.963Z</time></trkpt><trkpt lat="40.9990839" lon="16.9156396"><ele>155.0</ele><time>2026-04-28T15:30:04.963Z</time></trkpt><trkpt lat="40.9991363" lon="16.9154877"><ele>155.0</ele><time>2026-04-28T15:30:06.963Z</time></trkpt><trkpt lat="40.9991603" lon="16.9154087"><ele>155.0</ele><time>2026-04-28T15:30:07.964Z</time></trkpt><trkpt lat="40.9992089" lon="16.9152537"><ele>155.0</ele><time>2026-04-28T15:30:09.963Z</time></trkpt><trkpt lat="40.9992332" lon="16.915175"><ele>155.0</ele><time>2026-04-28T15:30:10.963Z</time></trkpt><trkpt lat="40.9992565" lon="16.9150954"><ele>155.0</ele><time>2026-04-28T15:30:11.963Z</time></trkpt><trkpt lat="40.9992807" lon="16.9150165"><ele>155.0</ele><time>2026-04-28T15:30:12.963Z</time></trkpt><trkpt lat="40.9993269" lon="16.9148697"><ele>155.0</ele><time>2026-04-28T15:30:14.964Z</time></trkpt><trkpt lat="40.9993678" lon="16.9147263"><ele>155.0</ele><time>2026-04-28T15:30:16.963Z</time></trkpt><trkpt lat="40.9994143" lon="16.9145716"><ele>155.0</ele><time>2026-04-28T15:30:18.964Z</time></trkpt><trkpt lat="40.9994599" lon="16.9144151"><ele>155.0</ele><time>2026-04-28T15:30:20.963Z</time></trkpt><trkpt lat="40.9995071" lon="16.9142609"><ele>155.16666666666666</ele><time>2026-04-28T15:30:22.964Z</time></trkpt><trkpt lat="40.9995157" lon="16.9141782"><ele>155.33333333333331</ele><time>2026-04-28T15:30:23.963Z</time></trkpt><trkpt lat="40.9995059" lon="16.9140958"><ele>155.5</ele><time>2026-04-28T15:30:24.963Z</time></trkpt><trkpt lat="40.9994938" lon="16.9140137"><ele>155.66666666666666</ele><time>2026-04-28T15:30:25.964Z</time></trkpt><trkpt lat="40.9994853" lon="16.9138545"><ele>155.83333333333334</ele><time>2026-04-28T15:30:27.963Z</time></trkpt><trkpt lat="40.9994702" lon="16.9137152"><ele>156.0</ele><time>2026-04-28T15:30:29.964Z</time></trkpt><trkpt lat="40.9994994" lon="16.9136149"><ele>156.0</ele><time>2026-04-28T15:30:32.963Z</time></trkpt><trkpt lat="40.9995725" lon="16.9136129"><ele>156.0</ele><time>2026-04-28T15:30:34.964Z</time></trkpt><trkpt lat="40.999674" lon="16.9136091"><ele>156.0</ele><time>2026-04-28T15:30:36.963Z</time></trkpt><trkpt lat="40.9997831" lon="16.9136041"><ele>156.0</ele><time>2026-04-28T15:30:38.963Z</time></trkpt><trkpt lat="40.9998958" lon="16.9136124"><ele>156.0</ele><time>2026-04-28T15:30:40.964Z</time></trkpt><trkpt lat="41.0000121" lon="16.9136374"><ele>156.0</ele><time>2026-04-28T15:30:42.963Z</time></trkpt><trkpt lat="41.000128" lon="16.9136748"><ele>156.0</ele><time>2026-04-28T15:30:44.963Z</time></trkpt><trkpt lat="41.0002416" lon="16.9137274"><ele>156.0</ele><time>2026-04-28T15:30:46.963Z</time></trkpt><trkpt lat="41.0003516" lon="16.9137889"><ele>156.0</ele><time>2026-04-28T15:30:48.963Z</time></trkpt><trkpt lat="41.0004606" lon="16.9138621"><ele>156.0</ele><time>2026-04-28T15:30:50.963Z</time></trkpt><trkpt lat="41.000572" lon="16.9139351"><ele>156.0</ele><time>2026-04-28T15:30:52.963Z</time></trkpt><trkpt lat="41.0006792" lon="16.9140125"><ele>156.0</ele><time>2026-04-28T15:30:54.963Z</time></trkpt><trkpt lat="41.0007864" lon="16.9140932"><ele>156.0</ele><time>2026-04-28T15:30:56.963Z</time></trkpt><trkpt lat="41.0008454" lon="16.9141282"><ele>156.0</ele><time>2026-04-28T15:30:57.963Z</time></trkpt><trkpt lat="41.0009566" lon="16.9142016"><ele>155.75</ele><time>2026-04-28T15:30:59.963Z</time></trkpt><trkpt lat="41.0010673" lon="16.9142729"><ele>155.5</ele><time>2026-04-28T15:31:01.964Z</time></trkpt><trkpt lat="41.0011771" lon="16.9143434"><ele>155.25</ele><time>2026-04-28T15:31:03.964Z</time></trkpt><trkpt lat="41.0012924" lon="16.9144024"><ele>155.0</ele><time>2026-04-28T15:31:05.963Z</time></trkpt><trkpt lat="41.0014028" lon="16.9144458"><ele>155.0</ele><time>2026-04-28T15:31:07.963Z</time></trkpt><trkpt lat="41.0015115" lon="16.9144549"><ele>155.0</ele><time>2026-04-28T15:31:09.963Z</time></trkpt><trkpt lat="41.0016259" lon="16.9144532"><ele>155.0</ele><time>2026-04-28T15:31:11.963Z</time></trkpt><trkpt lat="41.0017443" lon="16.9144539"><ele>155.0</ele><time>2026-04-28T15:31:13.963Z</time></trkpt><trkpt lat="41.0018635" lon="16.914449"><ele>155.0</ele><time>2026-04-28T15:31:15.965Z</time></trkpt><trkpt lat="41.0019814" lon="16.9144503"><ele>155.0</ele><time>2026-04-28T15:31:17.964Z</time></trkpt><trkpt lat="41.0020963" lon="16.9144582"><ele>155.0</ele><time>2026-04-28T15:31:19.963Z</time></trkpt><trkpt lat="41.0022159" lon="16.914471"><ele>155.0</ele><time>2026-04-28T15:31:21.963Z</time></trkpt><trkpt lat="41.0023215" lon="16.9144808"><ele>155.0</ele><time>2026-04-28T15:31:23.963Z</time></trkpt><trkpt lat="41.002389" lon="16.9144811"><ele>155.0</ele><time>2026-04-28T15:31:25.963Z</time></trkpt><trkpt lat="41.0024595" lon="16.9144775"><ele>155.0</ele><time>2026-04-28T15:31:43.963Z</time></trkpt><trkpt lat="41.0025079" lon="16.9144011"><ele>155.0</ele><time>2026-04-28T15:31:45.963Z</time></trkpt><trkpt lat="41.002521" lon="16.9142726"><ele>155.0</ele><time>2026-04-28T15:31:47.963Z</time></trkpt><trkpt lat="41.0025319" lon="16.9141328"><ele>155.0</ele><time>2026-04-28T15:31:49.963Z</time></trkpt><trkpt lat="41.0025396" lon="16.9139842"><ele>155.25</ele><time>2026-04-28T15:31:51.963Z</time></trkpt><trkpt lat="41.0025427" lon="16.9138352"><ele>155.5</ele><time>2026-04-28T15:31:53.963Z</time></trkpt><trkpt lat="41.0025494" lon="16.9136808"><ele>155.75</ele><time>2026-04-28T15:31:55.963Z</time></trkpt><trkpt lat="41.002557" lon="16.9135227"><ele>156.0</ele><time>2026-04-28T15:31:57.965Z</time></trkpt><trkpt lat="41.00256" lon="16.913362"><ele>156.0</ele><time>2026-04-28T15:31:59.963Z</time></trkpt><trkpt lat="41.0025644" lon="16.9131978"><ele>156.0</ele><time>2026-04-28T15:32:01.964Z</time></trkpt><trkpt lat="41.0025701" lon="16.9130293"><ele>156.0</ele><time>2026-04-28T15:32:03.963Z</time></trkpt><trkpt lat="41.0025797" lon="16.9128623"><ele>156.0</ele><time>2026-04-28T15:32:05.963Z</time></trkpt><trkpt lat="41.0025833" lon="16.9127752"><ele>156.0</ele><time>2026-04-28T15:32:06.963Z</time></trkpt><trkpt lat="41.0025885" lon="16.9126895"><ele>156.0</ele><time>2026-04-28T15:32:07.964Z</time></trkpt><trkpt lat="41.0026029" lon="16.9126031"><ele>156.0</ele><time>2026-04-28T15:32:08.963Z</time></trkpt><trkpt lat="41.002617" lon="16.912518"><ele>156.0</ele><time>2026-04-28T15:32:09.964Z</time></trkpt><trkpt lat="41.0026379" lon="16.9124308"><ele>156.0</ele><time>2026-04-28T15:32:10.963Z</time></trkpt><trkpt lat="41.0026658" lon="16.9123437"><ele>156.0</ele><time>2026-04-28T15:32:11.963Z</time></trkpt><trkpt lat="41.002697" lon="16.9122619"><ele>156.0</ele><time>2026-04-28T15:32:12.963Z</time></trkpt><trkpt lat="41.0027274" lon="16.9121783"><ele>156.0</ele><time>2026-04-28T15:32:13.963Z</time></trkpt><trkpt lat="41.0027669" lon="16.9121017"><ele>156.0</ele><time>2026-04-28T15:32:14.964Z</time></trkpt><trkpt lat="41.0028141" lon="16.9120348"><ele>156.0</ele><time>2026-04-28T15:32:15.964Z</time></trkpt><trkpt lat="41.0028604" lon="16.9119667"><ele>156.0</ele><time>2026-04-28T15:32:16.964Z</time></trkpt><trkpt lat="41.0029093" lon="16.9119057"><ele>156.0</ele><time>2026-04-28T15:32:17.963Z</time></trkpt><trkpt lat="41.0029615" lon="16.9118512"><ele>156.0</ele><time>2026-04-28T15:32:18.963Z</time></trkpt><trkpt lat="41.0030156" lon="16.9118025"><ele>156.0</ele><time>2026-04-28T15:32:19.963Z</time></trkpt><trkpt lat="41.0030701" lon="16.9117607"><ele>156.0</ele><time>2026-04-28T15:32:20.963Z</time></trkpt><trkpt lat="41.0031262" lon="16.9117198"><ele>156.0</ele><time>2026-04-28T15:32:21.964Z</time></trkpt><trkpt lat="41.0031857" lon="16.9116828"><ele>156.0</ele><time>2026-04-28T15:32:22.963Z</time></trkpt><trkpt lat="41.0032467" lon="16.911649"><ele>156.0</ele><time>2026-04-28T15:32:23.963Z</time></trkpt><trkpt lat="41.0033068" lon="16.9116214"><ele>156.0</ele><time>2026-04-28T15:32:24.963Z</time></trkpt><trkpt lat="41.0033695" lon="16.9116003"><ele>156.0</ele><time>2026-04-28T15:32:25.963Z</time></trkpt><trkpt lat="41.0034316" lon="16.9115856"><ele>156.0</ele><time>2026-04-28T15:32:26.963Z</time></trkpt><trkpt lat="41.0034949" lon="16.9115663"><ele>156.0</ele><time>2026-04-28T15:32:27.963Z</time></trkpt><trkpt lat="41.0035581" lon="16.9115525"><ele>155.85714285714286</ele><time>2026-04-28T15:32:28.963Z</time></trkpt><trkpt lat="41.0036231" lon="16.9115393"><ele>155.7142857142857</ele><time>2026-04-28T15:32:29.963Z</time></trkpt><trkpt lat="41.0036861" lon="16.9115269"><ele>155.57142857142856</ele><time>2026-04-28T15:32:30.963Z</time></trkpt><trkpt lat="41.0037508" lon="16.9115144"><ele>155.42857142857144</ele><time>2026-04-28T15:32:31.963Z</time></trkpt><trkpt lat="41.0038737" lon="16.9114917"><ele>155.28571428571428</ele><time>2026-04-28T15:32:33.963Z</time></trkpt><trkpt lat="41.0039363" lon="16.9114779"><ele>155.14285714285714</ele><time>2026-04-28T15:32:34.963Z</time></trkpt><trkpt lat="41.0039997" lon="16.9114631"><ele>155.0</ele><time>2026-04-28T15:32:35.963Z</time></trkpt><trkpt lat="41.0040625" lon="16.9114497"><ele>154.6</ele><time>2026-04-28T15:32:36.963Z</time></trkpt><trkpt lat="41.0041855" lon="16.9114247"><ele>154.2</ele><time>2026-04-28T15:32:38.963Z</time></trkpt><trkpt lat="41.0042493" lon="16.9114098"><ele>153.8</ele><time>2026-04-28T15:32:39.963Z</time></trkpt><trkpt lat="41.0043681" lon="16.9113873"><ele>153.4</ele><time>2026-04-28T15:32:41.963Z</time></trkpt><trkpt lat="41.0044837" lon="16.9113645"><ele>153.0</ele><time>2026-04-28T15:32:43.963Z</time></trkpt><trkpt lat="41.0046007" lon="16.9113407"><ele>153.0</ele><time>2026-04-28T15:32:45.963Z</time></trkpt><trkpt lat="41.0047084" lon="16.9113183"><ele>153.0</ele><time>2026-04-28T15:32:47.964Z</time></trkpt><trkpt lat="41.0048133" lon="16.9112999"><ele>153.0</ele><time>2026-04-28T15:32:49.963Z</time></trkpt><trkpt lat="41.004917" lon="16.911278"><ele>153.0</ele><time>2026-04-28T15:32:51.963Z</time></trkpt><trkpt lat="41.0050231" lon="16.9112557"><ele>153.0</ele><time>2026-04-28T15:32:53.963Z</time></trkpt><trkpt lat="41.0051374" lon="16.9112283"><ele>152.75</ele><time>2026-04-28T15:32:55.963Z</time></trkpt><trkpt lat="41.0052565" lon="16.9111945"><ele>152.5</ele><time>2026-04-28T15:32:57.964Z</time></trkpt><trkpt lat="41.0053727" lon="16.9111555"><ele>152.25</ele><time>2026-04-28T15:32:59.962Z</time></trkpt><trkpt lat="41.0054854" lon="16.9111171"><ele>152.0</ele><time>2026-04-28T15:33:01.963Z</time></trkpt><trkpt lat="41.0055948" lon="16.9110709"><ele>152.0</ele><time>2026-04-28T15:33:03.963Z</time></trkpt><trkpt lat="41.0057106" lon="16.9110222"><ele>152.0</ele><time>2026-04-28T15:33:05.963Z</time></trkpt><trkpt lat="41.0058248" lon="16.9109709"><ele>152.0</ele><time>2026-04-28T15:33:07.963Z</time></trkpt><trkpt lat="41.0059358" lon="16.9109017"><ele>152.0</ele><time>2026-04-28T15:33:09.963Z</time></trkpt><trkpt lat="41.0059943" lon="16.9108667"><ele>152.0</ele><time>2026-04-28T15:33:10.962Z</time></trkpt><trkpt lat="41.0060513" lon="16.9108312"><ele>152.4</ele><time>2026-04-28T15:33:11.963Z</time></trkpt><trkpt lat="41.0061625" lon="16.9107559"><ele>152.79999999999998</ele><time>2026-04-28T15:33:13.963Z</time></trkpt><trkpt lat="41.0062739" lon="16.9106802"><ele>153.2</ele><time>2026-04-28T15:33:15.964Z</time></trkpt><trkpt lat="41.0063298" lon="16.9106407"><ele>153.6</ele><time>2026-04-28T15:33:16.964Z</time></trkpt><trkpt lat="41.0064413" lon="16.910564"><ele>154.0</ele><time>2026-04-28T15:33:18.963Z</time></trkpt><trkpt lat="41.0064973" lon="16.9105239"><ele>154.0</ele><time>2026-04-28T15:33:19.963Z</time></trkpt><trkpt lat="41.0066112" lon="16.910446"><ele>154.0</ele><time>2026-04-28T15:33:21.964Z</time></trkpt><trkpt lat="41.0066676" lon="16.9104054"><ele>154.0</ele><time>2026-04-28T15:33:22.963Z</time></trkpt><trkpt lat="41.006723" lon="16.9103632"><ele>154.0</ele><time>2026-04-28T15:33:23.963Z</time></trkpt><trkpt lat="41.0067793" lon="16.9103229"><ele>154.0</ele><time>2026-04-28T15:33:24.963Z</time></trkpt><trkpt lat="41.0068365" lon="16.9102854"><ele>154.0</ele><time>2026-04-28T15:33:25.963Z</time></trkpt><trkpt lat="41.0068948" lon="16.9102467"><ele>154.0</ele><time>2026-04-28T15:33:26.963Z</time></trkpt><trkpt lat="41.0069528" lon="16.9102066"><ele>154.0</ele><time>2026-04-28T15:33:27.963Z</time></trkpt><trkpt lat="41.0070112" lon="16.9101635"><ele>154.0</ele><time>2026-04-28T15:33:28.963Z</time></trkpt><trkpt lat="41.0070676" lon="16.9101232"><ele>154.0</ele><time>2026-04-28T15:33:29.964Z</time></trkpt><trkpt lat="41.0071258" lon="16.9100811"><ele>154.0</ele><time>2026-04-28T15:33:30.963Z</time></trkpt><trkpt lat="41.0071831" lon="16.9100416"><ele>154.0</ele><time>2026-04-28T15:33:31.963Z</time></trkpt><trkpt lat="41.0072405" lon="16.9100033"><ele>154.0</ele><time>2026-04-28T15:33:32.963Z</time></trkpt><trkpt lat="41.0072983" lon="16.9099634"><ele>154.0</ele><time>2026-04-28T15:33:33.964Z</time></trkpt><trkpt lat="41.0073588" lon="16.9099203"><ele>154.0</ele><time>2026-04-28T15:33:34.963Z</time></trkpt><trkpt lat="41.007418" lon="16.9098786"><ele>154.0</ele><time>2026-04-28T15:33:35.964Z</time></trkpt><trkpt lat="41.0074762" lon="16.9098418"><ele>154.0</ele><time>2026-04-28T15:33:36.963Z</time></trkpt><trkpt lat="41.0075331" lon="16.9098004"><ele>154.0</ele><time>2026-04-28T15:33:37.963Z</time></trkpt><trkpt lat="41.0075912" lon="16.9097618"><ele>154.0</ele><time>2026-04-28T15:33:38.964Z</time></trkpt><trkpt lat="41.0076469" lon="16.9097214"><ele>154.0</ele><time>2026-04-28T15:33:39.963Z</time></trkpt><trkpt lat="41.0077038" lon="16.9096817"><ele>154.0</ele><time>2026-04-28T15:33:40.963Z</time></trkpt><trkpt lat="41.0077602" lon="16.9096414"><ele>154.0</ele><time>2026-04-28T15:33:41.964Z</time></trkpt><trkpt lat="41.0078169" lon="16.9096018"><ele>154.0</ele><time>2026-04-28T15:33:42.963Z</time></trkpt><trkpt lat="41.0078728" lon="16.9095633"><ele>154.0</ele><time>2026-04-28T15:33:43.963Z</time></trkpt><trkpt lat="41.0079304" lon="16.9095212"><ele>154.0</ele><time>2026-04-28T15:33:44.964Z</time></trkpt><trkpt lat="41.0079848" lon="16.909478"><ele>154.0</ele><time>2026-04-28T15:33:45.963Z</time></trkpt><trkpt lat="41.0080403" lon="16.9094368"><ele>154.0</ele><time>2026-04-28T15:33:46.963Z</time></trkpt><trkpt lat="41.0080957" lon="16.9093929"><ele>154.0</ele><time>2026-04-28T15:33:47.963Z</time></trkpt><trkpt lat="41.0082009" lon="16.909308"><ele>154.0</ele><time>2026-04-28T15:33:49.963Z</time></trkpt><trkpt lat="41.008284" lon="16.9092494"><ele>154.0</ele><time>2026-04-28T15:33:51.963Z</time></trkpt><trkpt lat="41.0083523" lon="16.9091919"><ele>154.0</ele><time>2026-04-28T15:33:54.964Z</time></trkpt><trkpt lat="41.0084272" lon="16.9091767"><ele>154.0</ele><time>2026-04-28T15:33:57.963Z</time></trkpt><trkpt lat="41.0084097" lon="16.909096"><ele>154.0</ele><time>2026-04-28T15:34:02.964Z</time></trkpt><trkpt lat="41.0083387" lon="16.9090794"><ele>154.0</ele><time>2026-04-28T15:34:04.963Z</time></trkpt><trkpt lat="41.0082629" lon="16.9090261"><ele>153.8</ele><time>2026-04-28T15:34:06.963Z</time></trkpt><trkpt lat="41.0081972" lon="16.9089382"><ele>153.60000000000002</ele><time>2026-04-28T15:34:08.964Z</time></trkpt><trkpt lat="41.0081325" lon="16.9088348"><ele>153.4</ele><time>2026-04-28T15:34:10.964Z</time></trkpt><trkpt lat="41.0080638" lon="16.9087262"><ele>153.20000000000002</ele><time>2026-04-28T15:34:12.963Z</time></trkpt><trkpt lat="41.0079924" lon="16.9086211"><ele>153.0</ele><time>2026-04-28T15:34:14.963Z</time></trkpt><trkpt lat="41.0079155" lon="16.9085135"><ele>152.5</ele><time>2026-04-28T15:34:16.963Z</time></trkpt><trkpt lat="41.0078399" lon="16.908405"><ele>152.0</ele><time>2026-04-28T15:34:18.963Z</time></trkpt><trkpt lat="41.0077611" lon="16.9082952"><ele>151.5</ele><time>2026-04-28T15:34:20.963Z</time></trkpt><trkpt lat="41.0076829" lon="16.908188"><ele>151.0</ele><time>2026-04-28T15:34:22.964Z</time></trkpt><trkpt lat="41.0076032" lon="16.9080751"><ele>151.0</ele><time>2026-04-28T15:34:24.963Z</time></trkpt><trkpt lat="41.0075198" lon="16.9079628"><ele>151.0</ele><time>2026-04-28T15:34:26.963Z</time></trkpt><trkpt lat="41.0074292" lon="16.9078739"><ele>151.0</ele><time>2026-04-28T15:34:28.963Z</time></trkpt><trkpt lat="41.0073463" lon="16.9077938"><ele>151.0</ele><time>2026-04-28T15:34:30.964Z</time></trkpt><trkpt lat="41.0072862" lon="16.9076775"><ele>151.0</ele><time>2026-04-28T15:34:32.963Z</time></trkpt><trkpt lat="41.0072388" lon="16.9075329"><ele>150.66666666666669</ele><time>2026-04-28T15:34:34.964Z</time></trkpt><trkpt lat="41.0071993" lon="16.9073803"><ele>150.33333333333334</ele><time>2026-04-28T15:34:36.963Z</time></trkpt><trkpt lat="41.0071527" lon="16.9072246"><ele>150.0</ele><time>2026-04-28T15:34:38.963Z</time></trkpt><trkpt lat="41.0071312" lon="16.9071443"><ele>149.66666666666666</ele><time>2026-04-28T15:34:39.963Z</time></trkpt><trkpt lat="41.0071092" lon="16.9070641"><ele>149.33333333333331</ele><time>2026-04-28T15:34:40.963Z</time></trkpt><trkpt lat="41.0070848" lon="16.9069836"><ele>149.0</ele><time>2026-04-28T15:34:41.963Z</time></trkpt><trkpt lat="41.0070599" lon="16.9069056"><ele>149.0</ele><time>2026-04-28T15:34:42.963Z</time></trkpt><trkpt lat="41.0070351" lon="16.9068272"><ele>149.0</ele><time>2026-04-28T15:34:43.963Z</time></trkpt><trkpt lat="41.0070142" lon="16.9067483"><ele>149.0</ele><time>2026-04-28T15:34:44.964Z</time></trkpt><trkpt lat="41.0069984" lon="16.9066638"><ele>149.0</ele><time>2026-04-28T15:34:45.964Z</time></trkpt><trkpt lat="41.0069942" lon="16.9065788"><ele>149.0</ele><time>2026-04-28T15:34:46.964Z</time></trkpt><trkpt lat="41.0070006" lon="16.9064937"><ele>149.0</ele><time>2026-04-28T15:34:47.963Z</time></trkpt><trkpt lat="41.0070231" lon="16.9064119"><ele>149.0</ele><time>2026-04-28T15:34:48.963Z</time></trkpt><trkpt lat="41.0070552" lon="16.9063364"><ele>149.0</ele><time>2026-04-28T15:34:49.963Z</time></trkpt><trkpt lat="41.007086" lon="16.9062628"><ele>149.0</ele><time>2026-04-28T15:34:50.963Z</time></trkpt><trkpt lat="41.0071143" lon="16.9061867"><ele>149.0</ele><time>2026-04-28T15:34:51.963Z</time></trkpt><trkpt lat="41.0071443" lon="16.9061084"><ele>149.0</ele><time>2026-04-28T15:34:52.964Z</time></trkpt><trkpt lat="41.0071684" lon="16.9060287"><ele>149.0</ele><time>2026-04-28T15:34:53.963Z</time></trkpt><trkpt lat="41.0071916" lon="16.9059467"><ele>149.0</ele><time>2026-04-28T15:34:54.963Z</time></trkpt><trkpt lat="41.0072164" lon="16.9058677"><ele>149.0</ele><time>2026-04-28T15:34:55.963Z</time></trkpt><trkpt lat="41.007236" lon="16.9057869"><ele>149.33333333333331</ele><time>2026-04-28T15:34:56.963Z</time></trkpt><trkpt lat="41.0072646" lon="16.9056224"><ele>149.66666666666666</ele><time>2026-04-28T15:34:58.964Z</time></trkpt><trkpt lat="41.0072837" lon="16.9054538"><ele>150.0</ele><time>2026-04-28T15:35:00.963Z</time></trkpt><trkpt lat="41.0072928" lon="16.9053698"><ele>150.33333333333334</ele><time>2026-04-28T15:35:01.964Z</time></trkpt><trkpt lat="41.0073015" lon="16.9052869"><ele>150.66666666666669</ele><time>2026-04-28T15:35:02.963Z</time></trkpt><trkpt lat="41.0073114" lon="16.9052011"><ele>151.0</ele><time>2026-04-28T15:35:03.963Z</time></trkpt><trkpt lat="41.0073203" lon="16.9051184"><ele>151.0</ele><time>2026-04-28T15:35:04.963Z</time></trkpt><trkpt lat="41.0073306" lon="16.9050352"><ele>151.0</ele><time>2026-04-28T15:35:05.963Z</time></trkpt><trkpt lat="41.0073451" lon="16.9049509"><ele>151.0</ele><time>2026-04-28T15:35:06.963Z</time></trkpt><trkpt lat="41.0073601" lon="16.9048698"><ele>151.0</ele><time>2026-04-28T15:35:07.963Z</time></trkpt><trkpt lat="41.0073818" lon="16.9047043"><ele>151.0</ele><time>2026-04-28T15:35:09.963Z</time></trkpt><trkpt lat="41.0073977" lon="16.9045411"><ele>151.0</ele><time>2026-04-28T15:35:11.963Z</time></trkpt><trkpt lat="41.0074133" lon="16.904377"><ele>151.0</ele><time>2026-04-28T15:35:13.963Z</time></trkpt><trkpt lat="41.0074268" lon="16.9042931"><ele>151.0</ele><time>2026-04-28T15:35:14.963Z</time></trkpt><trkpt lat="41.0074382" lon="16.9042105"><ele>151.0</ele><time>2026-04-28T15:35:15.964Z</time></trkpt><trkpt lat="41.0074569" lon="16.9040485"><ele>151.0</ele><time>2026-04-28T15:35:17.963Z</time></trkpt><trkpt lat="41.0074741" lon="16.9038857"><ele>151.0</ele><time>2026-04-28T15:35:19.963Z</time></trkpt><trkpt lat="41.0074373" lon="16.9037435"><ele>150.8</ele><time>2026-04-28T15:35:21.963Z</time></trkpt><trkpt lat="41.0073284" lon="16.9037027"><ele>150.6</ele><time>2026-04-28T15:35:23.963Z</time></trkpt><trkpt lat="41.0072087" lon="16.9037008"><ele>150.4</ele><time>2026-04-28T15:35:25.964Z</time></trkpt><trkpt lat="41.0071449" lon="16.9037015"><ele>150.2</ele><time>2026-04-28T15:35:26.963Z</time></trkpt><trkpt lat="41.0070818" lon="16.9037026"><ele>150.0</ele><time>2026-04-28T15:35:27.963Z</time></trkpt><trkpt lat="41.006956" lon="16.9036975"><ele>150.0</ele><time>2026-04-28T15:35:29.963Z</time></trkpt><trkpt lat="41.0068931" lon="16.9036891"><ele>150.0</ele><time>2026-04-28T15:35:30.963Z</time></trkpt><trkpt lat="41.0068294" lon="16.9036779"><ele>150.0</ele><time>2026-04-28T15:35:31.963Z</time></trkpt><trkpt lat="41.0067659" lon="16.9036606"><ele>150.0</ele><time>2026-04-28T15:35:32.963Z</time></trkpt><trkpt lat="41.0066638" lon="16.9036081"><ele>150.0</ele><time>2026-04-28T15:35:34.963Z</time></trkpt><trkpt lat="41.0066583" lon="16.9034755"><ele>150.0</ele><time>2026-04-28T15:35:36.963Z</time></trkpt><trkpt lat="41.0067289" lon="16.9033558"><ele>150.16666666666666</ele><time>2026-04-28T15:35:38.963Z</time></trkpt><trkpt lat="41.0067897" lon="16.9032122"><ele>150.33333333333334</ele><time>2026-04-28T15:35:40.963Z</time></trkpt><trkpt lat="41.0068392" lon="16.9030607"><ele>150.5</ele><time>2026-04-28T15:35:42.963Z</time></trkpt><trkpt lat="41.0068615" lon="16.9029814"><ele>150.66666666666669</ele><time>2026-04-28T15:35:43.964Z</time></trkpt><trkpt lat="41.0068816" lon="16.9029021"><ele>150.83333333333334</ele><time>2026-04-28T15:35:44.963Z</time></trkpt><trkpt lat="41.006897" lon="16.902821"><ele>151.0</ele><time>2026-04-28T15:35:45.963Z</time></trkpt><trkpt lat="41.0069134" lon="16.9027398"><ele>151.0</ele><time>2026-04-28T15:35:46.963Z</time></trkpt><trkpt lat="41.0069308" lon="16.9026586"><ele>151.0</ele><time>2026-04-28T15:35:47.964Z</time></trkpt><trkpt lat="41.0069708" lon="16.9025007"><ele>151.0</ele><time>2026-04-28T15:35:49.963Z</time></trkpt><trkpt lat="41.0069891" lon="16.902418"><ele>151.0</ele><time>2026-04-28T15:35:50.963Z</time></trkpt><trkpt lat="41.007008" lon="16.9023384"><ele>151.0</ele><time>2026-04-28T15:35:51.963Z</time></trkpt><trkpt lat="41.0070453" lon="16.9021797"><ele>151.0</ele><time>2026-04-28T15:35:53.963Z</time></trkpt><trkpt lat="41.0070855" lon="16.9020212"><ele>150.66666666666669</ele><time>2026-04-28T15:35:55.964Z</time></trkpt><trkpt lat="41.0071078" lon="16.9019415"><ele>150.33333333333334</ele><time>2026-04-28T15:35:56.964Z</time></trkpt><trkpt lat="41.0071508" lon="16.9017879"><ele>150.0</ele><time>2026-04-28T15:35:58.963Z</time></trkpt><trkpt lat="41.0071733" lon="16.9017088"><ele>149.66666666666666</ele><time>2026-04-28T15:35:59.964Z</time></trkpt><trkpt lat="41.0072239" lon="16.9015585"><ele>149.33333333333331</ele><time>2026-04-28T15:36:01.964Z</time></trkpt><trkpt lat="41.007247" lon="16.9014784"><ele>149.0</ele><time>2026-04-28T15:36:02.964Z</time></trkpt><trkpt lat="41.0072659" lon="16.9013969"><ele>148.83333333333331</ele><time>2026-04-28T15:36:03.963Z</time></trkpt><trkpt lat="41.0072817" lon="16.9013148"><ele>148.66666666666666</ele><time>2026-04-28T15:36:04.963Z</time></trkpt><trkpt lat="41.0073036" lon="16.9011486"><ele>148.5</ele><time>2026-04-28T15:36:06.963Z</time></trkpt><trkpt lat="41.0073129" lon="16.9010637"><ele>148.33333333333334</ele><time>2026-04-28T15:36:07.963Z</time></trkpt><trkpt lat="41.0073227" lon="16.9009801"><ele>148.16666666666669</ele><time>2026-04-28T15:36:08.963Z</time></trkpt><trkpt lat="41.0073405" lon="16.9008149"><ele>148.0</ele><time>2026-04-28T15:36:10.963Z</time></trkpt><trkpt lat="41.0073521" lon="16.9007278"><ele>147.8</ele><time>2026-04-28T15:36:11.963Z</time></trkpt><trkpt lat="41.0073683" lon="16.9005685"><ele>147.60000000000002</ele><time>2026-04-28T15:36:13.964Z</time></trkpt><trkpt lat="41.0073844" lon="16.9004029"><ele>147.39999999999998</ele><time>2026-04-28T15:36:15.963Z</time></trkpt><trkpt lat="41.0074021" lon="16.9002325"><ele>147.2</ele><time>2026-04-28T15:36:17.964Z</time></trkpt><trkpt lat="41.0074117" lon="16.9001493"><ele>147.0</ele><time>2026-04-28T15:36:18.963Z</time></trkpt><trkpt lat="41.0074219" lon="16.9000644"><ele>147.0</ele><time>2026-04-28T15:36:19.963Z</time></trkpt><trkpt lat="41.0074317" lon="16.8999807"><ele>147.0</ele><time>2026-04-28T15:36:20.963Z</time></trkpt><trkpt lat="41.0074479" lon="16.8998155"><ele>147.0</ele><time>2026-04-28T15:36:22.963Z</time></trkpt><trkpt lat="41.0074565" lon="16.8997282"><ele>147.0</ele><time>2026-04-28T15:36:23.963Z</time></trkpt><trkpt lat="41.0074675" lon="16.8995581"><ele>147.0</ele><time>2026-04-28T15:36:25.964Z</time></trkpt><trkpt lat="41.007473" lon="16.8994725"><ele>147.0</ele><time>2026-04-28T15:36:26.963Z</time></trkpt><trkpt lat="41.0074813" lon="16.8993861"><ele>147.0</ele><time>2026-04-28T15:36:27.963Z</time></trkpt><trkpt lat="41.0074913" lon="16.899302"><ele>147.0</ele><time>2026-04-28T15:36:28.963Z</time></trkpt><trkpt lat="41.0075012" lon="16.8992187"><ele>147.0</ele><time>2026-04-28T15:36:29.964Z</time></trkpt><trkpt lat="41.0075151" lon="16.8990527"><ele>147.0</ele><time>2026-04-28T15:36:31.963Z</time></trkpt><trkpt lat="41.0075223" lon="16.8989678"><ele>147.0</ele><time>2026-04-28T15:36:32.963Z</time></trkpt><trkpt lat="41.0075325" lon="16.8987992"><ele>147.14285714285714</ele><time>2026-04-28T15:36:34.964Z</time></trkpt><trkpt lat="41.0075384" lon="16.8987155"><ele>147.28571428571428</ele><time>2026-04-28T15:36:35.965Z</time></trkpt><trkpt lat="41.00755" lon="16.8986334"><ele>147.42857142857144</ele><time>2026-04-28T15:36:36.965Z</time></trkpt><trkpt lat="41.0075677" lon="16.8985514"><ele>147.57142857142856</ele><time>2026-04-28T15:36:37.963Z</time></trkpt><trkpt lat="41.0075819" lon="16.898468"><ele>147.71428571428572</ele><time>2026-04-28T15:36:38.963Z</time></trkpt><trkpt lat="41.0075932" lon="16.8983858"><ele>147.85714285714286</ele><time>2026-04-28T15:36:39.963Z</time></trkpt><trkpt lat="41.0076108" lon="16.8982235"><ele>148.0</ele><time>2026-04-28T15:36:41.963Z</time></trkpt><trkpt lat="41.0076257" lon="16.898057"><ele>148.0</ele><time>2026-04-28T15:36:43.963Z</time></trkpt><trkpt lat="41.0076382" lon="16.8978895"><ele>148.0</ele><time>2026-04-28T15:36:45.963Z</time></trkpt><trkpt lat="41.007649" lon="16.8978059"><ele>148.0</ele><time>2026-04-28T15:36:46.963Z</time></trkpt><trkpt lat="41.0076575" lon="16.8977227"><ele>148.0</ele><time>2026-04-28T15:36:47.963Z</time></trkpt><trkpt lat="41.0076687" lon="16.8976354"><ele>148.0</ele><time>2026-04-28T15:36:48.963Z</time></trkpt><trkpt lat="41.0076837" lon="16.8975543"><ele>148.0</ele><time>2026-04-28T15:36:49.963Z</time></trkpt><trkpt lat="41.0076881" lon="16.8974698"><ele>148.0</ele><time>2026-04-28T15:36:50.963Z</time></trkpt><trkpt lat="41.0076855" lon="16.8973833"><ele>148.0</ele><time>2026-04-28T15:36:51.964Z</time></trkpt><trkpt lat="41.0076755" lon="16.897299"><ele>148.0</ele><time>2026-04-28T15:36:52.963Z</time></trkpt><trkpt lat="41.0076623" lon="16.8972154"><ele>148.0</ele><time>2026-04-28T15:36:53.964Z</time></trkpt><trkpt lat="41.0076506" lon="16.8971316"><ele>148.0</ele><time>2026-04-28T15:36:54.963Z</time></trkpt><trkpt lat="41.0076514" lon="16.896962"><ele>148.0</ele><time>2026-04-28T15:36:56.964Z</time></trkpt><trkpt lat="41.0076596" lon="16.8968767"><ele>148.0</ele><time>2026-04-28T15:36:57.963Z</time></trkpt><trkpt lat="41.0076664" lon="16.8967897"><ele>148.0</ele><time>2026-04-28T15:36:58.962Z</time></trkpt><trkpt lat="41.0076757" lon="16.8967057"><ele>148.0</ele><time>2026-04-28T15:36:59.962Z</time></trkpt><trkpt lat="41.0076929" lon="16.8965391"><ele>148.0</ele><time>2026-04-28T15:37:01.963Z</time></trkpt><trkpt lat="41.0077027" lon="16.8964542"><ele>148.0</ele><time>2026-04-28T15:37:02.962Z</time></trkpt><trkpt lat="41.00771" lon="16.896369"><ele>148.0</ele><time>2026-04-28T15:37:03.962Z</time></trkpt><trkpt lat="41.0077169" lon="16.8962814"><ele>148.0</ele><time>2026-04-28T15:37:04.962Z</time></trkpt><trkpt lat="41.0077204" lon="16.8961966"><ele>148.0</ele><time>2026-04-28T15:37:05.963Z</time></trkpt><trkpt lat="41.0077257" lon="16.8961088"><ele>148.0</ele><time>2026-04-28T15:37:06.962Z</time></trkpt><trkpt lat="41.0077315" lon="16.8960204"><ele>148.0</ele><time>2026-04-28T15:37:07.962Z</time></trkpt><trkpt lat="41.0077385" lon="16.8959365"><ele>148.0</ele><time>2026-04-28T15:37:08.963Z</time></trkpt><trkpt lat="41.0077424" lon="16.8958495"><ele>148.0</ele><time>2026-04-28T15:37:09.962Z</time></trkpt><trkpt lat="41.0077556" lon="16.8957556"><ele>148.0</ele><time>2026-04-28T15:37:10.963Z</time></trkpt><trkpt lat="41.0077764" lon="16.8956599"><ele>148.0</ele><time>2026-04-28T15:37:11.963Z</time></trkpt><trkpt lat="41.0077964" lon="16.8955725"><ele>147.85714285714286</ele><time>2026-04-28T15:37:12.962Z</time></trkpt><trkpt lat="41.0078141" lon="16.8954818"><ele>147.71428571428572</ele><time>2026-04-28T15:37:13.964Z</time></trkpt><trkpt lat="41.0078285" lon="16.8953926"><ele>147.57142857142856</ele><time>2026-04-28T15:37:14.963Z</time></trkpt><trkpt lat="41.0078395" lon="16.8953027"><ele>147.42857142857144</ele><time>2026-04-28T15:37:15.962Z</time></trkpt><trkpt lat="41.0078471" lon="16.8952166"><ele>147.28571428571428</ele><time>2026-04-28T15:37:16.962Z</time></trkpt><trkpt lat="41.0078573" lon="16.8951328"><ele>147.14285714285714</ele><time>2026-04-28T15:37:17.963Z</time></trkpt><trkpt lat="41.0078697" lon="16.8950509"><ele>147.0</ele><time>2026-04-28T15:37:18.962Z</time></trkpt><trkpt lat="41.0078963" lon="16.8948961"><ele>146.42857142857142</ele><time>2026-04-28T15:37:20.963Z</time></trkpt><trkpt lat="41.0079292" lon="16.894735"><ele>145.85714285714286</ele><time>2026-04-28T15:37:22.962Z</time></trkpt><trkpt lat="41.007945" lon="16.8946526"><ele>145.28571428571428</ele><time>2026-04-28T15:37:23.962Z</time></trkpt><trkpt lat="41.0079596" lon="16.8945711"><ele>144.71428571428572</ele><time>2026-04-28T15:37:24.962Z</time></trkpt><trkpt lat="41.0079746" lon="16.8944891"><ele>144.14285714285714</ele><time>2026-04-28T15:37:25.962Z</time></trkpt><trkpt lat="41.0079904" lon="16.8944067"><ele>143.57142857142856</ele><time>2026-04-28T15:37:26.963Z</time></trkpt><trkpt lat="41.0080046" lon="16.8943238"><ele>143.0</ele><time>2026-04-28T15:37:27.962Z</time></trkpt><trkpt lat="41.0080203" lon="16.8942411"><ele>142.83333333333331</ele><time>2026-04-28T15:37:28.963Z</time></trkpt><trkpt lat="41.0080367" lon="16.8941581"><ele>142.66666666666666</ele><time>2026-04-28T15:37:29.962Z</time></trkpt><trkpt lat="41.0080683" lon="16.8939917"><ele>142.5</ele><time>2026-04-28T15:37:31.962Z</time></trkpt><trkpt lat="41.008086" lon="16.8939038"><ele>142.33333333333334</ele><time>2026-04-28T15:37:32.963Z</time></trkpt><trkpt lat="41.0081083" lon="16.8938206"><ele>142.16666666666669</ele><time>2026-04-28T15:37:33.963Z</time></trkpt><trkpt lat="41.0081375" lon="16.8937424"><ele>142.0</ele><time>2026-04-28T15:37:34.962Z</time></trkpt><trkpt lat="41.0081673" lon="16.8936662"><ele>142.0</ele><time>2026-04-28T15:37:35.962Z</time></trkpt><trkpt lat="41.0082299" lon="16.8935186"><ele>142.0</ele><time>2026-04-28T15:37:37.962Z</time></trkpt><trkpt lat="41.0082538" lon="16.8934382"><ele>142.0</ele><time>2026-04-28T15:37:38.962Z</time></trkpt><trkpt lat="41.0082718" lon="16.8933532"><ele>142.0</ele><time>2026-04-28T15:37:39.963Z</time></trkpt><trkpt lat="41.0082884" lon="16.8932672"><ele>142.0</ele><time>2026-04-28T15:37:40.962Z</time></trkpt><trkpt lat="41.0083206" lon="16.8931902"><ele>142.0</ele><time>2026-04-28T15:37:41.963Z</time></trkpt><trkpt lat="41.0083609" lon="16.8931253"><ele>142.28571428571428</ele><time>2026-04-28T15:37:42.962Z</time></trkpt><trkpt lat="41.0084043" lon="16.8930645"><ele>142.57142857142856</ele><time>2026-04-28T15:37:43.962Z</time></trkpt><trkpt lat="41.0084475" lon="16.8930006"><ele>142.85714285714286</ele><time>2026-04-28T15:37:44.962Z</time></trkpt><trkpt lat="41.0084904" lon="16.8929374"><ele>143.14285714285714</ele><time>2026-04-28T15:37:45.962Z</time></trkpt><trkpt lat="41.0085346" lon="16.8928762"><ele>143.42857142857144</ele><time>2026-04-28T15:37:46.962Z</time></trkpt><trkpt lat="41.0086194" lon="16.8927504"><ele>143.71428571428572</ele><time>2026-04-28T15:37:48.962Z</time></trkpt><trkpt lat="41.0086562" lon="16.8926813"><ele>144.0</ele><time>2026-04-28T15:37:49.962Z</time></trkpt><trkpt lat="41.0086811" lon="16.8926008"><ele>143.57142857142858</ele><time>2026-04-28T15:37:50.962Z</time></trkpt><trkpt lat="41.0087105" lon="16.8925222"><ele>143.14285714285714</ele><time>2026-04-28T15:37:51.962Z</time></trkpt><trkpt lat="41.0087433" lon="16.8924463"><ele>142.71428571428572</ele><time>2026-04-28T15:37:52.962Z</time></trkpt><trkpt lat="41.0087796" lon="16.8923705"><ele>142.28571428571428</ele><time>2026-04-28T15:37:53.962Z</time></trkpt><trkpt lat="41.0088232" lon="16.8923013"><ele>141.85714285714286</ele><time>2026-04-28T15:37:54.963Z</time></trkpt><trkpt lat="41.0088633" lon="16.8922304"><ele>141.42857142857144</ele><time>2026-04-28T15:37:55.963Z</time></trkpt><trkpt lat="41.0089015" lon="16.8921586"><ele>141.0</ele><time>2026-04-28T15:37:56.963Z</time></trkpt><trkpt lat="41.0089352" lon="16.8920846"><ele>141.0</ele><time>2026-04-28T15:37:57.962Z</time></trkpt><trkpt lat="41.0089665" lon="16.8920089"><ele>141.0</ele><time>2026-04-28T15:37:58.962Z</time></trkpt><trkpt lat="41.0090001" lon="16.8919333"><ele>141.0</ele><time>2026-04-28T15:37:59.963Z</time></trkpt><trkpt lat="41.0090404" lon="16.8918659"><ele>141.0</ele><time>2026-04-28T15:38:00.962Z</time></trkpt><trkpt lat="41.0090829" lon="16.8918037"><ele>141.0</ele><time>2026-04-28T15:38:01.962Z</time></trkpt><trkpt lat="41.0091262" lon="16.8917417"><ele>141.0</ele><time>2026-04-28T15:38:02.962Z</time></trkpt><trkpt lat="41.0091742" lon="16.8916808"><ele>141.0</ele><time>2026-04-28T15:38:03.962Z</time></trkpt><trkpt lat="41.009225" lon="16.891619"><ele>141.0</ele><time>2026-04-28T15:38:04.963Z</time></trkpt><trkpt lat="41.0092608" lon="16.8915433"><ele>141.0</ele><time>2026-04-28T15:38:05.962Z</time></trkpt><trkpt lat="41.0092935" lon="16.8914123"><ele>141.0</ele><time>2026-04-28T15:38:07.962Z</time></trkpt><trkpt lat="41.0092251" lon="16.8913241"><ele>141.0</ele><time>2026-04-28T15:38:09.962Z</time></trkpt><trkpt lat="41.0091082" lon="16.8913016"><ele>141.0</ele><time>2026-04-28T15:38:11.962Z</time></trkpt><trkpt lat="41.0090436" lon="16.8912898"><ele>141.0</ele><time>2026-04-28T15:38:12.962Z</time></trkpt><trkpt lat="41.0089786" lon="16.8912831"><ele>141.0</ele><time>2026-04-28T15:38:13.962Z</time></trkpt><trkpt lat="41.008913" lon="16.8912812"><ele>141.0</ele><time>2026-04-28T15:38:14.961Z</time></trkpt><trkpt lat="41.0088477" lon="16.8912766"><ele>141.0</ele><time>2026-04-28T15:38:15.963Z</time></trkpt><trkpt lat="41.0087816" lon="16.891275"><ele>141.0</ele><time>2026-04-28T15:38:16.962Z</time></trkpt><trkpt lat="41.0087171" lon="16.8912747"><ele>141.0</ele><time>2026-04-28T15:38:17.962Z</time></trkpt><trkpt lat="41.0086529" lon="16.8912741"><ele>141.0</ele><time>2026-04-28T15:38:18.962Z</time></trkpt><trkpt lat="41.008532" lon="16.8912638"><ele>141.0</ele><time>2026-04-28T15:38:20.962Z</time></trkpt><trkpt lat="41.0084251" lon="16.8912648"><ele>141.0</ele><time>2026-04-28T15:38:22.962Z</time></trkpt><trkpt lat="41.0083291" lon="16.8912628"><ele>141.0</ele><time>2026-04-28T15:38:24.962Z</time></trkpt><trkpt lat="41.008237" lon="16.8912587"><ele>141.0</ele><time>2026-04-28T15:38:26.963Z</time></trkpt><trkpt lat="41.0081494" lon="16.8912555"><ele>141.0</ele><time>2026-04-28T15:38:28.962Z</time></trkpt><trkpt lat="41.0080628" lon="16.8912223"><ele>141.2</ele><time>2026-04-28T15:38:30.962Z</time></trkpt><trkpt lat="41.0079918" lon="16.8911383"><ele>141.39999999999998</ele><time>2026-04-28T15:38:32.963Z</time></trkpt><trkpt lat="41.0079086" lon="16.8910829"><ele>141.6</ele><time>2026-04-28T15:38:34.962Z</time></trkpt><trkpt lat="41.0078143" lon="16.8910603"><ele>141.79999999999998</ele><time>2026-04-28T15:38:36.962Z</time></trkpt><trkpt lat="41.0077379" lon="16.8909842"><ele>142.0</ele><time>2026-04-28T15:38:38.962Z</time></trkpt><trkpt lat="41.0077175" lon="16.8908515"><ele>142.6</ele><time>2026-04-28T15:38:40.962Z</time></trkpt><trkpt lat="41.0077055" lon="16.8907121"><ele>143.2</ele><time>2026-04-28T15:38:42.962Z</time></trkpt><trkpt lat="41.007685" lon="16.890574"><ele>143.8</ele><time>2026-04-28T15:38:44.962Z</time></trkpt><trkpt lat="41.0076679" lon="16.8904343"><ele>144.4</ele><time>2026-04-28T15:38:46.962Z</time></trkpt><trkpt lat="41.0076474" lon="16.8902944"><ele>145.0</ele><time>2026-04-28T15:38:48.962Z</time></trkpt><trkpt lat="41.0076275" lon="16.890154"><ele>145.4</ele><time>2026-04-28T15:38:50.962Z</time></trkpt><trkpt lat="41.0076044" lon="16.8900114"><ele>145.8</ele><time>2026-04-28T15:38:52.962Z</time></trkpt><trkpt lat="41.0075843" lon="16.8898668"><ele>146.2</ele><time>2026-04-28T15:38:54.962Z</time></trkpt><trkpt lat="41.0075638" lon="16.8897257"><ele>146.6</ele><time>2026-04-28T15:38:56.962Z</time></trkpt><trkpt lat="41.0075451" lon="16.8895809"><ele>147.0</ele><time>2026-04-28T15:38:58.963Z</time></trkpt><trkpt lat="41.007527" lon="16.8894407"><ele>147.0</ele><time>2026-04-28T15:39:00.962Z</time></trkpt><trkpt lat="41.0074995" lon="16.8893049"><ele>147.0</ele><time>2026-04-28T15:39:02.962Z</time></trkpt><trkpt lat="41.0074636" lon="16.8891705"><ele>147.0</ele><time>2026-04-28T15:39:04.962Z</time></trkpt><trkpt lat="41.0073997" lon="16.8890603"><ele>147.0</ele><time>2026-04-28T15:39:06.962Z</time></trkpt><trkpt lat="41.0072911" lon="16.8890534"><ele>147.0</ele><time>2026-04-28T15:39:08.963Z</time></trkpt><trkpt lat="41.0071845" lon="16.8890858"><ele>147.2</ele><time>2026-04-28T15:39:10.963Z</time></trkpt><trkpt lat="41.0070714" lon="16.8891105"><ele>147.39999999999998</ele><time>2026-04-28T15:39:12.962Z</time></trkpt><trkpt lat="41.0069559" lon="16.8891282"><ele>147.60000000000002</ele><time>2026-04-28T15:39:14.963Z</time></trkpt><trkpt lat="41.0068621" lon="16.8891039"><ele>147.8</ele><time>2026-04-28T15:39:16.962Z</time></trkpt><trkpt lat="41.0068307" lon="16.8889814"><ele>148.0</ele><time>2026-04-28T15:39:18.962Z</time></trkpt><trkpt lat="41.0068134" lon="16.8888296"><ele>148.0</ele><time>2026-04-28T15:39:20.962Z</time></trkpt><trkpt lat="41.0067898" lon="16.8886708"><ele>148.0</ele><time>2026-04-28T15:39:22.962Z</time></trkpt><trkpt lat="41.0067698" lon="16.8885071"><ele>148.0</ele><time>2026-04-28T15:39:24.962Z</time></trkpt><trkpt lat="41.0067473" lon="16.8883453"><ele>148.0</ele><time>2026-04-28T15:39:26.962Z</time></trkpt><trkpt lat="41.0067247" lon="16.8881832"><ele>148.0</ele><time>2026-04-28T15:39:28.963Z</time></trkpt><trkpt lat="41.0067104" lon="16.8880231"><ele>148.0</ele><time>2026-04-28T15:39:30.962Z</time></trkpt><trkpt lat="41.0066893" lon="16.8878758"><ele>148.0</ele><time>2026-04-28T15:39:32.962Z</time></trkpt><trkpt lat="41.0066731" lon="16.8877328"><ele>148.0</ele><time>2026-04-28T15:39:34.962Z</time></trkpt><trkpt lat="41.006644" lon="16.8875901"><ele>148.0</ele><time>2026-04-28T15:39:36.962Z</time></trkpt><trkpt lat="41.0066229" lon="16.8874475"><ele>148.0</ele><time>2026-04-28T15:39:38.962Z</time></trkpt><trkpt lat="41.0066032" lon="16.8872951"><ele>148.0</ele><time>2026-04-28T15:39:40.962Z</time></trkpt><trkpt lat="41.0065824" lon="16.8871337"><ele>148.0</ele><time>2026-04-28T15:39:42.962Z</time></trkpt><trkpt lat="41.0065575" lon="16.8869794"><ele>148.0</ele><time>2026-04-28T15:39:44.962Z</time></trkpt><trkpt lat="41.0065255" lon="16.8868283"><ele>148.0</ele><time>2026-04-28T15:39:46.962Z</time></trkpt><trkpt lat="41.0064891" lon="16.8866764"><ele>148.0</ele><time>2026-04-28T15:39:48.962Z</time></trkpt><trkpt lat="41.0064544" lon="16.8865234"><ele>148.0</ele><time>2026-04-28T15:39:50.962Z</time></trkpt><trkpt lat="41.0064181" lon="16.8863661"><ele>148.20000000000002</ele><time>2026-04-28T15:39:52.963Z</time></trkpt><trkpt lat="41.0063882" lon="16.8862177"><ele>148.4</ele><time>2026-04-28T15:39:54.962Z</time></trkpt><trkpt lat="41.0063607" lon="16.8860794"><ele>148.60000000000002</ele><time>2026-04-28T15:39:56.963Z</time></trkpt><trkpt lat="41.006334" lon="16.8859548"><ele>148.8</ele><time>2026-04-28T15:39:58.962Z</time></trkpt><trkpt lat="41.0063084" lon="16.8858238"><ele>149.0</ele><time>2026-04-28T15:40:00.963Z</time></trkpt><trkpt lat="41.0062779" lon="16.8856831"><ele>149.0</ele><time>2026-04-28T15:40:02.962Z</time></trkpt><trkpt lat="41.0062181" lon="16.8855535"><ele>149.0</ele><time>2026-04-28T15:40:04.963Z</time></trkpt><trkpt lat="41.0061309" lon="16.8854703"><ele>149.0</ele><time>2026-04-28T15:40:06.963Z</time></trkpt><trkpt lat="41.006103" lon="16.8853355"><ele>149.0</ele><time>2026-04-28T15:40:08.962Z</time></trkpt><trkpt lat="41.0060902" lon="16.8852029"><ele>149.0</ele><time>2026-04-28T15:40:10.962Z</time></trkpt><trkpt lat="41.0060753" lon="16.8850523"><ele>148.8</ele><time>2026-04-28T15:40:12.962Z</time></trkpt><trkpt lat="41.0060696" lon="16.8848917"><ele>148.60000000000002</ele><time>2026-04-28T15:40:14.962Z</time></trkpt><trkpt lat="41.0060508" lon="16.8847311"><ele>148.4</ele><time>2026-04-28T15:40:16.962Z</time></trkpt><trkpt lat="41.0059607" lon="16.884614"><ele>148.20000000000002</ele><time>2026-04-28T15:40:18.962Z</time></trkpt><trkpt lat="41.0059074" lon="16.8845668"><ele>148.0</ele><time>2026-04-28T15:40:19.963Z</time></trkpt><trkpt lat="41.0058598" lon="16.8845005"><ele>148.0</ele><time>2026-04-28T15:40:20.962Z</time></trkpt><trkpt lat="41.00583" lon="16.8844152"><ele>148.0</ele><time>2026-04-28T15:40:21.962Z</time></trkpt><trkpt lat="41.0058134" lon="16.8843203"><ele>148.0</ele><time>2026-04-28T15:40:22.962Z</time></trkpt><trkpt lat="41.0057945" lon="16.8842209"><ele>148.0</ele><time>2026-04-28T15:40:23.962Z</time></trkpt><trkpt lat="41.0057745" lon="16.8841165"><ele>148.0</ele><time>2026-04-28T15:40:24.962Z</time></trkpt><trkpt lat="41.0057517" lon="16.8840122"><ele>148.0</ele><time>2026-04-28T15:40:25.963Z</time></trkpt><trkpt lat="41.0057218" lon="16.8839093"><ele>147.5</ele><time>2026-04-28T15:40:26.962Z</time></trkpt><trkpt lat="41.0056824" lon="16.8838108"><ele>147.0</ele><time>2026-04-28T15:40:27.962Z</time></trkpt><trkpt lat="41.0056388" lon="16.8837159"><ele>146.5</ele><time>2026-04-28T15:40:28.962Z</time></trkpt><trkpt lat="41.0055958" lon="16.8836223"><ele>146.0</ele><time>2026-04-28T15:40:29.962Z</time></trkpt><trkpt lat="41.0055508" lon="16.8835323"><ele>145.5</ele><time>2026-04-28T15:40:30.963Z</time></trkpt><trkpt lat="41.0055131" lon="16.8834404"><ele>145.0</ele><time>2026-04-28T15:40:31.962Z</time></trkpt><trkpt lat="41.0054878" lon="16.8833456"><ele>144.83333333333334</ele><time>2026-04-28T15:40:32.962Z</time></trkpt><trkpt lat="41.0054758" lon="16.883254"><ele>144.66666666666669</ele><time>2026-04-28T15:40:33.962Z</time></trkpt><trkpt lat="41.0054605" lon="16.883166"><ele>144.5</ele><time>2026-04-28T15:40:34.962Z</time></trkpt><trkpt lat="41.0054473" lon="16.8830833"><ele>144.33333333333334</ele><time>2026-04-28T15:40:35.962Z</time></trkpt><trkpt lat="41.00542" lon="16.8829267"><ele>144.16666666666666</ele><time>2026-04-28T15:40:37.962Z</time></trkpt><trkpt lat="41.0053998" lon="16.8827742"><ele>144.0</ele><time>2026-04-28T15:40:39.962Z</time></trkpt><trkpt lat="41.0053733" lon="16.882623"><ele>144.33333333333334</ele><time>2026-04-28T15:40:41.963Z</time></trkpt><trkpt lat="41.0053246" lon="16.8824949"><ele>144.66666666666666</ele><time>2026-04-28T15:40:43.962Z</time></trkpt><trkpt lat="41.0052493" lon="16.8824045"><ele>145.0</ele><time>2026-04-28T15:40:45.962Z</time></trkpt><trkpt lat="41.0051717" lon="16.8823307"><ele>145.33333333333331</ele><time>2026-04-28T15:40:47.962Z</time></trkpt><trkpt lat="41.0051197" lon="16.8822797"><ele>145.66666666666666</ele><time>2026-04-28T15:40:49.962Z</time></trkpt><trkpt lat="41.0050609" lon="16.8822294"><ele>146.0</ele><time>2026-04-28T15:40:51.962Z</time></trkpt><trkpt lat="41.004993" lon="16.8821479"><ele>146.2</ele><time>2026-04-28T15:40:53.963Z</time></trkpt><trkpt lat="41.0049115" lon="16.8820815"><ele>146.39999999999998</ele><time>2026-04-28T15:40:55.962Z</time></trkpt><trkpt lat="41.0048169" lon="16.8820596"><ele>146.6</ele><time>2026-04-28T15:40:57.962Z</time></trkpt><trkpt lat="41.0047197" lon="16.8820556"><ele>146.79999999999998</ele><time>2026-04-28T15:40:59.962Z</time></trkpt><trkpt lat="41.0046187" lon="16.8820595"><ele>147.0</ele><time>2026-04-28T15:41:01.962Z</time></trkpt><trkpt lat="41.0045214" lon="16.8820756"><ele>147.0</ele><time>2026-04-28T15:41:03.962Z</time></trkpt><trkpt lat="41.0044222" lon="16.8820925"><ele>147.0</ele><time>2026-04-28T15:41:05.963Z</time></trkpt><trkpt lat="41.004337" lon="16.8820877"><ele>147.0</ele><time>2026-04-28T15:41:07.962Z</time></trkpt><trkpt lat="41.0042643" lon="16.8820763"><ele>147.0</ele><time>2026-04-28T15:41:09.962Z</time></trkpt><trkpt lat="41.0041845" lon="16.8820637"><ele>147.0</ele><time>2026-04-28T15:41:11.962Z</time></trkpt><trkpt lat="41.0040924" lon="16.8820465"><ele>147.0</ele><time>2026-04-28T15:41:13.962Z</time></trkpt><trkpt lat="41.004001" lon="16.882032"><ele>147.0</ele><time>2026-04-28T15:41:15.962Z</time></trkpt><trkpt lat="41.0039201" lon="16.8820232"><ele>147.0</ele><time>2026-04-28T15:41:17.962Z</time></trkpt><trkpt lat="41.0038643" lon="16.8819832"><ele>147.0</ele><time>2026-04-28T15:41:19.963Z</time></trkpt><trkpt lat="41.0038651" lon="16.8818696"><ele>147.0</ele><time>2026-04-28T15:41:21.963Z</time></trkpt><trkpt lat="41.0038833" lon="16.8817375"><ele>147.0</ele><time>2026-04-28T15:41:23.962Z</time></trkpt><trkpt lat="41.0038856" lon="16.8816092"><ele>147.0</ele><time>2026-04-28T15:41:25.963Z</time></trkpt><trkpt lat="41.003887" lon="16.8814866"><ele>147.6</ele><time>2026-04-28T15:41:27.962Z</time></trkpt><trkpt lat="41.0038456" lon="16.8813599"><ele>148.2</ele><time>2026-04-28T15:41:29.962Z</time></trkpt><trkpt lat="41.0037467" lon="16.8812938"><ele>148.8</ele><time>2026-04-28T15:41:31.962Z</time></trkpt><trkpt lat="41.0036364" lon="16.8812867"><ele>149.4</ele><time>2026-04-28T15:41:33.962Z</time></trkpt><trkpt lat="41.0035306" lon="16.8812763"><ele>150.0</ele><time>2026-04-28T15:41:35.962Z</time></trkpt><trkpt lat="41.0034151" lon="16.8812618"><ele>150.2</ele><time>2026-04-28T15:41:37.961Z</time></trkpt><trkpt lat="41.003306" lon="16.8812537"><ele>150.4</ele><time>2026-04-28T15:41:39.962Z</time></trkpt><trkpt lat="41.0031956" lon="16.8812395"><ele>150.6</ele><time>2026-04-28T15:41:41.962Z</time></trkpt><trkpt lat="41.0030803" lon="16.8812182"><ele>150.8</ele><time>2026-04-28T15:41:43.962Z</time></trkpt><trkpt lat="41.0029749" lon="16.8812016"><ele>151.0</ele><time>2026-04-28T15:41:45.962Z</time></trkpt><trkpt lat="41.0028647" lon="16.8811891"><ele>151.0</ele><time>2026-04-28T15:41:47.962Z</time></trkpt><trkpt lat="41.002754" lon="16.8811784"><ele>151.0</ele><time>2026-04-28T15:41:49.963Z</time></trkpt><trkpt lat="41.0026394" lon="16.8811687"><ele>151.0</ele><time>2026-04-28T15:41:51.962Z</time></trkpt><trkpt lat="41.002534" lon="16.8811676"><ele>151.0</ele><time>2026-04-28T15:41:53.963Z</time></trkpt><trkpt lat="41.0024614" lon="16.8811236"><ele>151.0</ele><time>2026-04-28T15:41:55.963Z</time></trkpt><trkpt lat="41.0024632" lon="16.8809907"><ele>151.2</ele><time>2026-04-28T15:41:57.962Z</time></trkpt><trkpt lat="41.0024769" lon="16.8808488"><ele>151.39999999999998</ele><time>2026-04-28T15:41:59.962Z</time></trkpt><trkpt lat="41.0024941" lon="16.8807053"><ele>151.6</ele><time>2026-04-28T15:42:01.962Z</time></trkpt><trkpt lat="41.002497" lon="16.8805613"><ele>151.79999999999998</ele><time>2026-04-28T15:42:03.963Z</time></trkpt><trkpt lat="41.0024952" lon="16.8804249"><ele>152.0</ele><time>2026-04-28T15:42:05.962Z</time></trkpt><trkpt lat="41.0025004" lon="16.8802804"><ele>152.0</ele><time>2026-04-28T15:42:07.962Z</time></trkpt><trkpt lat="41.0025119" lon="16.8801404"><ele>152.0</ele><time>2026-04-28T15:42:09.963Z</time></trkpt><trkpt lat="41.0025224" lon="16.8800091"><ele>152.0</ele><time>2026-04-28T15:42:11.963Z</time></trkpt><trkpt lat="41.002546" lon="16.8798572"><ele>152.0</ele><time>2026-04-28T15:42:13.962Z</time></trkpt><trkpt lat="41.0025604" lon="16.8797279"><ele>152.0</ele><time>2026-04-28T15:42:15.961Z</time></trkpt><trkpt lat="41.0024904" lon="16.8796497"><ele>152.6</ele><time>2026-04-28T15:42:17.962Z</time></trkpt><trkpt lat="41.0023948" lon="16.8796303"><ele>153.2</ele><time>2026-04-28T15:42:19.963Z</time></trkpt><trkpt lat="41.0022905" lon="16.8796303"><ele>153.8</ele><time>2026-04-28T15:42:21.963Z</time></trkpt><trkpt lat="41.0021858" lon="16.8796158"><ele>154.4</ele><time>2026-04-28T15:42:23.962Z</time></trkpt><trkpt lat="41.0020982" lon="16.8795725"><ele>155.0</ele><time>2026-04-28T15:42:25.963Z</time></trkpt><trkpt lat="41.0020621" lon="16.8794847"><ele>155.0</ele><time>2026-04-28T15:42:27.962Z</time></trkpt><trkpt lat="41.0020724" lon="16.8793279"><ele>155.0</ele><time>2026-04-28T15:42:29.962Z</time></trkpt><trkpt lat="41.0020845" lon="16.8791757"><ele>155.0</ele><time>2026-04-28T15:42:31.962Z</time></trkpt><trkpt lat="41.002103" lon="16.8790251"><ele>155.0</ele><time>2026-04-28T15:42:33.962Z</time></trkpt><trkpt lat="41.0021259" lon="16.8788688"><ele>155.0</ele><time>2026-04-28T15:42:35.962Z</time></trkpt><trkpt lat="41.0021233" lon="16.8787807"><ele>155.0</ele><time>2026-04-28T15:42:36.962Z</time></trkpt><trkpt lat="41.002156" lon="16.8786305"><ele>155.0</ele><time>2026-04-28T15:42:38.963Z</time></trkpt><trkpt lat="41.0021732" lon="16.8785431"><ele>155.0</ele><time>2026-04-28T15:42:39.963Z</time></trkpt><trkpt lat="41.0021812" lon="16.8784598"><ele>155.0</ele><time>2026-04-28T15:42:40.962Z</time></trkpt><trkpt lat="41.0022059" lon="16.8783101"><ele>155.0</ele><time>2026-04-28T15:42:42.962Z</time></trkpt><trkpt lat="41.0022093" lon="16.8781592"><ele>155.0</ele><time>2026-04-28T15:42:44.962Z</time></trkpt><trkpt lat="41.0022136" lon="16.8780315"><ele>155.0</ele><time>2026-04-28T15:42:46.962Z</time></trkpt><trkpt lat="41.0022111" lon="16.8778883"><ele>155.0</ele><time>2026-04-28T15:42:48.962Z</time></trkpt><trkpt lat="41.0022145" lon="16.8777589"><ele>155.0</ele><time>2026-04-28T15:42:50.962Z</time></trkpt><trkpt lat="41.0022162" lon="16.8776674"><ele>155.0</ele><time>2026-04-28T15:42:52.962Z</time></trkpt><trkpt lat="41.0022258" lon="16.87754"><ele>156.0</ele><time>2026-04-28T15:42:54.962Z</time></trkpt><trkpt lat="41.0022322" lon="16.8774186"><ele>156.0</ele><time>2026-04-28T15:42:56.962Z</time></trkpt><trkpt lat="41.002281" lon="16.8773427"><ele>156.0</ele><time>2026-04-28T15:42:59.962Z</time></trkpt><trkpt lat="41.0023014" lon="16.8772458"><ele>156.0</ele><time>2026-04-28T15:43:02.962Z</time></trkpt><trkpt lat="41.0023086" lon="16.8771336"><ele>156.0</ele><time>2026-04-28T15:43:05.963Z</time></trkpt></trkseg></trk></gpx>